Observation data for Boys Ranch on 05/23/2019      Previous  Date  Next       Current Mesonet Observations  Soil Data  Daily Summary Page  Observations in Plain Language
KBY1 230500Z 08004KT 14/11 A2979 RMK A01 T01420110  RH  081%=      5-min Rain = 0
KBY1 230501Z 08004KT 14/11 A2979 RMK A01 T01430111  RH  081%=      5-min Rain = 0
KBY1 230502Z 08004KT 15/11 A298 RMK A01 T01450111  RH  080%=      5-min Rain = 0
KBY1 230503Z 08004KT 15/11 A2979 RMK A01 T01460111  RH  079%=      5-min Rain = 0
KBY1 230504Z 07004KT 15/11 A2979 RMK A01 T01470111  RH  079%=      5-min Rain = 0
KBY1 230505Z 07005KT 15/11 A2979 RMK A01 T01470111  RH  079%=      5-min Rain = 0
KBY1 230506Z 07004KT 15/11 A2979 RMK A01 T01470111  RH  079%=      5-min Rain = 0
KBY1 230507Z 08005KT 15/11 A2979 RMK A01 T01460110  RH  079%=      5-min Rain = 0
KBY1 230508Z 08004KT 15/11 A298 RMK A01 T01470110  RH  078%=      5-min Rain = 0
KBY1 230509Z 08003KT 15/11 A298 RMK A01 T01460108  RH  078%=      5-min Rain = 0
KBY1 230510Z 08003KT 15/11 A298 RMK A01 T01460107  RH  077%=      5-min Rain = 0
KBY1 230511Z 09004KT 15/11 A298 RMK A01 T01490106  RH  076%=      5-min Rain = 0
KBY1 230512Z 10004KT 15/11 A298 RMK A01 T01520105  RH  073%=      5-min Rain = 0
KBY1 230513Z 10003KT 15/11 A298 RMK A01 T01540105  RH  072%=      5-min Rain = 0
KBY1 230514Z 09003KT 16/11 A298 RMK A01 T01550105  RH  072%=      5-min Rain = 0
KBY1 230515Z 09003KT 16/11 A298 RMK A01 T01570106  RH  072%=      5-min Rain = 0
KBY1 230516Z 10003KT 16/11 A298 RMK A01 T01570105  RH  071%=      5-min Rain = 0
KBY1 230517Z 10003KT 16/11 A298 RMK A01 T01580105  RH  071%=      5-min Rain = 0
KBY1 230518Z 10003KT 16/11 A298 RMK A01 T01580106  RH  071%=      5-min Rain = 0
KBY1 230519Z 09003KT 16/11 A298 RMK A01 T01580106  RH  071%=      5-min Rain = 0
KBY1 230520Z 09004KT 16/11 A298 RMK A01 T01570106  RH  072%=      5-min Rain = 0
KBY1 230521Z 09003KT 16/11 A298 RMK A01 T01570106  RH  072%=      5-min Rain = 0
KBY1 230522Z 09003KT 16/11 A298 RMK A01 T01570106  RH  072%=      5-min Rain = 0
KBY1 230523Z 09003KT 16/11 A298 RMK A01 T01570105  RH  071%=      5-min Rain = 0
KBY1 230524Z 09003KT 16/10 A298 RMK A01 T01570104  RH  071%=      5-min Rain = 0
KBY1 230525Z 08004KT 16/10 A298 RMK A01 T01580104  RH  070%=      5-min Rain = 0
KBY1 230526Z 08004KT 16/10 A298 RMK A01 T01600102  RH  068%=      5-min Rain = 0
KBY1 230527Z 08004KT 16/10 A298 RMK A01 T01620100  RH  066%=      5-min Rain = 0
KBY1 230528Z 08004KT 16/10 A298 RMK A01 T01640101  RH  066%=      5-min Rain = 0
KBY1 230529Z 07004KT 16/10 A298 RMK A01 T01640099  RH  065%=      5-min Rain = 0
KBY1 230530Z 08004KT 16/10 A298 RMK A01 T01640097  RH  064%=      5-min Rain = 0
KBY1 230531Z 08004KT 17/10 A298 RMK A01 T01650097  RH  064%=      5-min Rain = 0
KBY1 230532Z 08004KT 16/10 A298 RMK A01 T01640097  RH  064%=      5-min Rain = 0
KBY1 230533Z 08004KT 16/10 A298 RMK A01 T01640096  RH  064%=      5-min Rain = 0
KBY1 230534Z 07004KT 16/10 A298 RMK A01 T01640096  RH  064%=      5-min Rain = 0
KBY1 230535Z 08004KT 17/10 A298 RMK A01 T01650095  RH  063%=      5-min Rain = 0
KBY1 230536Z 07004KT 17/09 A298 RMK A01 T01660093  RH  062%=      5-min Rain = 0
KBY1 230537Z 07004KT 17/09 A298 RMK A01 T01680093  RH  061%=      5-min Rain = 0
KBY1 230538Z 07005KT 17/09 A298 RMK A01 T01690092  RH  061%=      5-min Rain = 0
KBY1 230539Z 07005KT 17/09 A298 RMK A01 T01690092  RH  060%=      5-min Rain = 0
KBY1 230540Z 07004KT 17/09 A298 RMK A01 T01680090  RH  060%=      5-min Rain = 0
KBY1 230541Z 07004KT 17/09 A298 RMK A01 T01690089  RH  059%=      5-min Rain = 0
KBY1 230542Z 06004KT 17/09 A298 RMK A01 T01700091  RH  060%=      5-min Rain = 0
KBY1 230543Z 07004KT 17/09 A298 RMK A01 T01700092  RH  060%=      5-min Rain = 0
KBY1 230544Z 07004KT 17/09 A298 RMK A01 T01700090  RH  059%=      5-min Rain = 0
KBY1 230545Z 07005KT 17/09 A298 RMK A01 T01690088  RH  058%=      5-min Rain = 0
KBY1 230546Z 06004KT 17/09 A298 RMK A01 T01700086  RH  058%=      5-min Rain = 0
KBY1 230547Z 07005KT 17/09 A298 RMK A01 T01710086  RH  057%=      5-min Rain = 0
KBY1 230548Z 06005KT 17/09 A298 RMK A01 T01710085  RH  057%=      5-min Rain = 0
KBY1 230549Z 07005KT 17/09 A298 RMK A01 T01710086  RH  057%=      5-min Rain = 0
KBY1 230550Z 07006KT 17/09 A298 RMK A01 T01700085  RH  057%=      5-min Rain = 0
KBY1 230551Z 06006KT 17/08 A298 RMK A01 T01690083  RH  057%=      5-min Rain = 0
KBY1 230552Z 06006KT 17/08 A298 RMK A01 T01710080  RH  055%=      5-min Rain = 0
KBY1 230553Z 06005KT 17/08 A298 RMK A01 T01740082  RH  055%=      5-min Rain = 0
KBY1 230554Z 06006KT 17/08 A298 RMK A01 T01740082  RH  054%=      5-min Rain = 0
KBY1 230555Z 05006KT 17/08 A298 RMK A01 T01740082  RH  055%=      5-min Rain = 0
KBY1 230556Z 06006KT 17/08 A298 RMK A01 T01740081  RH  054%=      5-min Rain = 0
KBY1 230557Z 06006KT 17/08 A298 RMK A01 T01740081  RH  054%=      5-min Rain = 0
KBY1 230558Z 06007KT 17/08 A2981 RMK A01 T01740081  RH  054%=      5-min Rain = 0
KBY1 230559Z 06007KT 17/08 A2981 RMK A01 T01740081  RH  054%=      5-min Rain = 0
KBY1 230600Z 06006KT 17/08 A2981 RMK A01 T01740081  RH  054%=      5-min Rain = 0
KBY1 230601Z 07007KT 17/08 A2981 RMK A01 T01740081  RH  054%=      5-min Rain = 0
KBY1 230602Z 06007KT 18/08 A2981 RMK A01 T01750082  RH  054%=      5-min Rain = 0
KBY1 230603Z 06008KT 18/08 A2981 RMK A01 T01750082  RH  055%=      5-min Rain = 0
KBY1 230604Z 06008KT 17/08 A2981 RMK A01 T01740082  RH  054%=      5-min Rain = 0
KBY1 230605Z 07007KT 18/08 A2981 RMK A01 T01760082  RH  054%=      5-min Rain = 0
KBY1 230606Z 06006KT 18/08 A2981 RMK A01 T01770084  RH  054%=      5-min Rain = 0
KBY1 230607Z 06006KT 18/08 A2981 RMK A01 T01770084  RH  054%=      5-min Rain = 0
KBY1 230608Z 06006KT 18/08 A2981 RMK A01 T01770084  RH  054%=      5-min Rain = 0
KBY1 230609Z 06007KT 18/08 A2981 RMK A01 T01780083  RH  054%=      5-min Rain = 0
KBY1 230610Z 07006KT 18/09 A2981 RMK A01 T01790085  RH  054%=      5-min Rain = 0
KBY1 230611Z 06007KT 18/09 A2981 RMK A01 T01790085  RH  054%=      5-min Rain = 0
KBY1 230612Z 06006KT 18/09 A2981 RMK A01 T01790085  RH  054%=      5-min Rain = 0
KBY1 230613Z 06006KT 18/08 A2981 RMK A01 T01790084  RH  054%=      5-min Rain = 0
KBY1 230614Z 07007KT 18/09 A2981 RMK A01 T01800086  RH  054%=      5-min Rain = 0
KBY1 230615Z 07006KT 18/09 A2981 RMK A01 T01800085  RH  054%=      5-min Rain = 0
KBY1 230616Z 07006KT 18/09 A2981 RMK A01 T01820086  RH  053%=      5-min Rain = 0
KBY1 230617Z 07007KT 18/09 A2981 RMK A01 T01820087  RH  054%=      5-min Rain = 0
KBY1 230618Z 06007KT 18/09 A2981 RMK A01 T01820086  RH  053%=      5-min Rain = 0
KBY1 230619Z 06006KT 18/09 A2981 RMK A01 T01830087  RH  054%=      5-min Rain = 0
KBY1 230620Z 07006KT 18/09 A2981 RMK A01 T01830088  RH  054%=      5-min Rain = 0
KBY1 230621Z 07006KT 18/09 A2981 RMK A01 T01820087  RH  054%=      5-min Rain = 0
KBY1 230622Z 07006KT 18/09 A2981 RMK A01 T01830087  RH  053%=      5-min Rain = 0
KBY1 230623Z 07006KT 18/09 A2981 RMK A01 T01840088  RH  053%=      5-min Rain = 0
KBY1 230624Z 07006KT 18/09 A2981 RMK A01 T01840090  RH  054%=      5-min Rain = 0
KBY1 230625Z 08007KT 18/09 A2981 RMK A01 T01830091  RH  055%=      5-min Rain = 0
KBY1 230626Z 07007KT 18/09 A2981 RMK A01 T01820091  RH  055%=      5-min Rain = 0
KBY1 230627Z 07007KT 18/09 A2981 RMK A01 T01820090  RH  055%=      5-min Rain = 0
KBY1 230628Z 07006KT 18/09 A2981 RMK A01 T01840090  RH  054%=      5-min Rain = 0
KBY1 230629Z 07007KT 19/09 A2981 RMK A01 T01850092  RH  054%=      5-min Rain = 0
KBY1 230630Z 06007KT 19/09 A2981 RMK A01 T01850091  RH  054%=      5-min Rain = 0
KBY1 230631Z 07005KT 19/09 A2981 RMK A01 T01860091  RH  054%=      5-min Rain = 0
KBY1 230632Z 07006KT 19/09 A2981 RMK A01 T01870093  RH  054%=      5-min Rain = 0
KBY1 230633Z 06006KT 19/09 A2981 RMK A01 T01860094  RH  055%=      5-min Rain = 0
KBY1 230634Z 07007KT 19/09 A2981 RMK A01 T01860094  RH  055%=      5-min Rain = 0
KBY1 230635Z 07006KT 19/09 A2982 RMK A01 T01860094  RH  055%=      5-min Rain = 0
KBY1 230636Z 06006KT 19/09 A2982 RMK A01 T01860094  RH  055%=      5-min Rain = 0
KBY1 230637Z 07006KT 19/09 A2982 RMK A01 T01870094  RH  055%=      5-min Rain = 0
KBY1 230638Z 07006KT 19/10 A2982 RMK A01 T01870095  RH  055%=      5-min Rain = 0
KBY1 230639Z 07005KT 19/10 A2982 RMK A01 T01870097  RH  056%=      5-min Rain = 0
KBY1 230640Z 07006KT 19/10 A2982 RMK A01 T01860096  RH  056%=      5-min Rain = 0
KBY1 230641Z 06006KT 19/10 A2982 RMK A01 T01850098  RH  057%=      5-min Rain = 0
KBY1 230642Z 07006KT 18/10 A2982 RMK A01 T01840098  RH  057%=      5-min Rain = 0
KBY1 230643Z 07006KT 18/10 A2982 RMK A01 T01840097  RH  057%=      5-min Rain = 0
KBY1 230644Z 06005KT 19/10 A2982 RMK A01 T01860097  RH  056%=      5-min Rain = 0
KBY1 230645Z 07005KT 19/10 A2982 RMK A01 T01870099  RH  056%=      5-min Rain = 0
KBY1 230646Z 06006KT 19/10 A2982 RMK A01 T01870100  RH  057%=      5-min Rain = 0
KBY1 230647Z 07005KT 19/10 A2982 RMK A01 T01860099  RH  057%=      5-min Rain = 0
KBY1 230648Z 06005KT 19/10 A2982 RMK A01 T01860099  RH  057%=      5-min Rain = 0
KBY1 230649Z 06006KT 19/10 A2982 RMK A01 T01870100  RH  057%=      5-min Rain = 0
KBY1 230650Z 06005KT 19/10 A2982 RMK A01 T01870100  RH  057%=      5-min Rain = 0
KBY1 230651Z 06006KT 19/10 A2982 RMK A01 T01870100  RH  057%=      5-min Rain = 0
KBY1 230652Z 06005KT 19/10 A2982 RMK A01 T01880101  RH  057%=      5-min Rain = 0
KBY1 230653Z 05006KT 19/10 A2982 RMK A01 T01870102  RH  058%=      5-min Rain = 0
KBY1 230654Z 05006KT 19/10 A2982 RMK A01 T01870102  RH  058%=      5-min Rain = 0
KBY1 230655Z 06006KT 19/10 A2982 RMK A01 T01880103  RH  058%=      5-min Rain = 0
KBY1 230656Z 06006KT 19/10 A2982 RMK A01 T01870103  RH  058%=      5-min Rain = 0
KBY1 230657Z 05006KT 19/10 A2982 RMK A01 T01870104  RH  058%=      5-min Rain = 0
KBY1 230658Z 05007KT 19/10 A2982 RMK A01 T01870104  RH  058%=      5-min Rain = 0
KBY1 230659Z 05006KT 19/11 A2982 RMK A01 T01890105  RH  058%=      5-min Rain = 0
KBY1 230700Z 05007KT 19/11 A2982 RMK A01 T01890106  RH  058%=      5-min Rain = 0
KBY1 230701Z 05006KT 19/11 A2982 RMK A01 T01890106  RH  059%=      5-min Rain = 0
KBY1 230702Z 04007KT 19/11 A2982 RMK A01 T01890107  RH  059%=      5-min Rain = 0
KBY1 230703Z 05007KT 19/11 A2982 RMK A01 T01900107  RH  059%=      5-min Rain = 0
KBY1 230704Z 04007KT 19/11 A2982 RMK A01 T01900107  RH  058%=      5-min Rain = 0
KBY1 230705Z 04006KT 19/11 A2982 RMK A01 T01910107  RH  058%=      5-min Rain = 0
KBY1 230706Z 04007KT 19/11 A2982 RMK A01 T01910108  RH  058%=      5-min Rain = 0
KBY1 230707Z 04007KT 19/11 A2982 RMK A01 T01910108  RH  058%=      5-min Rain = 0
KBY1 230708Z 04007KT 19/11 A2982 RMK A01 T01910109  RH  059%=      5-min Rain = 0
KBY1 230709Z 04007KT 19/11 A2982 RMK A01 T01900109  RH  059%=      5-min Rain = 0
KBY1 230710Z 04008KT 19/11 A2982 RMK A01 T01900110  RH  060%=      5-min Rain = 0
KBY1 230711Z 04008KT 19/11 A2982 RMK A01 T01900110  RH  060%=      5-min Rain = 0
KBY1 230712Z 04009KT 19/11 A2982 RMK A01 T01890110  RH  060%=      5-min Rain = 0
KBY1 230713Z 04008KT 19/11 A2982 RMK A01 T01880110  RH  060%=      5-min Rain = 0
KBY1 230714Z 04009KT 19/11 A2982 RMK A01 T01880111  RH  061%=      5-min Rain = 0
KBY1 230715Z 04008KT 19/11 A2982 RMK A01 T01870112  RH  061%=      5-min Rain = 0
KBY1 230716Z 04009KT 19/11 A2982 RMK A01 T01870112  RH  061%=      5-min Rain = 0
KBY1 230717Z 04009KT 19/11 A2983 RMK A01 T01880112  RH  061%=      5-min Rain = 0
KBY1 230718Z 03009KT 19/11 A2983 RMK A01 T01880112  RH  061%=      5-min Rain = 0
KBY1 230719Z 04008KT 19/11 A2983 RMK A01 T01880112  RH  061%=      5-min Rain = 0
KBY1 230720Z 04009KT 19/11 A2983 RMK A01 T01880113  RH  061%=      5-min Rain = 0
KBY1 230721Z 04009KT 19/11 A2982 RMK A01 T01880113  RH  062%=      5-min Rain = 0
KBY1 230722Z 04010KT 19/11 A2982 RMK A01 T01880114  RH  062%=      5-min Rain = 0
KBY1 230723Z 04010KT 19/11 A2983 RMK A01 T01880114  RH  062%=      5-min Rain = 0
KBY1 230724Z 04010KT 19/12 A2983 RMK A01 T01890115  RH  062%=      5-min Rain = 0
KBY1 230725Z 04009KT 19/12 A2983 RMK A01 T01900116  RH  062%=      5-min Rain = 0
KBY1 230726Z 03010KT 19/12 A2983 RMK A01 T01900116  RH  062%=      5-min Rain = 0
KBY1 230727Z 03010KT 19/12 A2983 RMK A01 T01890115  RH  062%=      5-min Rain = 0
KBY1 230728Z 02010KT 19/11 A2983 RMK A01 T01870114  RH  062%=      5-min Rain = 0
KBY1 230729Z 02010KT 18/11 A2983 RMK A01 T01840113  RH  063%=      5-min Rain = 0
KBY1 230730Z 02010KT 18/11 A2983 RMK A01 T01820113  RH  064%=      5-min Rain = 0
KBY1 230731Z 02010KT 18/11 A2983 RMK A01 T01810113  RH  064%=      5-min Rain = 0
KBY1 230732Z 03010KT 18/11 A2983 RMK A01 T01800113  RH  065%=      5-min Rain = 0
KBY1 230733Z 03011KT 18/11 A2983 RMK A01 T01790114  RH  066%=      5-min Rain = 0
KBY1 230734Z 03012KT 18/12 A2982 RMK A01 T01800115  RH  066%=      5-min Rain = 0
KBY1 230735Z 04011KT 18/12 A2983 RMK A01 T01820118  RH  066%=      5-min Rain = 0
KBY1 230736Z 04010KT 18/12 A2983 RMK A01 T01840118  RH  065%=      5-min Rain = 0
KBY1 230737Z 04009KT 19/12 A2983 RMK A01 T01860122  RH  066%=      5-min Rain = 0
KBY1 230738Z 04008KT 19/12 A2983 RMK A01 T01870123  RH  067%=      5-min Rain = 0
KBY1 230739Z 04008KT 19/13 A2983 RMK A01 T01890127  RH  067%=      5-min Rain = 0
KBY1 230740Z 03006KT 19/13 A2983 RMK A01 T01900128  RH  067%=      5-min Rain = 0
KBY1 230741Z 04007KT 19/13 A2983 RMK A01 T01910126  RH  066%=      5-min Rain = 0
KBY1 230742Z 04008KT 19/13 A2983 RMK A01 T01910130  RH  068%=      5-min Rain = 0
KBY1 230743Z 04007KT 19/13 A2983 RMK A01 T01930133  RH  068%=      5-min Rain = 0
KBY1 230744Z 04006KT 19/13 A2983 RMK A01 T01930131  RH  067%=      5-min Rain = 0
KBY1 230745Z 04006KT 19/13 A2983 RMK A01 T01930129  RH  067%=      5-min Rain = 0
KBY1 230746Z 06005KT 19/13 A2983 RMK A01 T01920131  RH  068%=      5-min Rain = 0
KBY1 230747Z 03006KT 19/13 A2983 RMK A01 T01920134  RH  069%=      5-min Rain = 0
KBY1 230748Z 02006KT 19/14 A2983 RMK A01 T01940138  RH  070%=      5-min Rain = 0
KBY1 230749Z 02006KT 20/14 A2983 RMK A01 T01960138  RH  069%=      5-min Rain = 0
KBY1 230750Z 04005KT 20/14 A2984 RMK A01 T01970141  RH  070%=      5-min Rain = 0
KBY1 230751Z 04007KT 20/14 A2984 RMK A01 T01980140  RH  069%=      5-min Rain = 0
KBY1 230752Z 02007KT 20/14 A2984 RMK A01 T01980138  RH  068%=      5-min Rain = 0
KBY1 230753Z 02007KT 20/14 A2984 RMK A01 T01980141  RH  069%=      5-min Rain = 0
KBY1 230754Z 01008KT 20/14 A2984 RMK A01 T01980141  RH  069%=      5-min Rain = 0
KBY1 230755Z 00009KT 20/14 A2984 RMK A01 T01980141  RH  069%=      5-min Rain = 0
KBY1 230756Z 00010KT 20/14 A2985 RMK A01 T01970135  RH  067%=      5-min Rain = 0
KBY1 230757Z 00012G17KT 19/13 A2984 RMK A01 T01900125  RH  066%=      5-min Rain = 0
KBY1 230758Z 36013KT 18/12 A2984 RMK A01 T01820121  RH  067%=      5-min Rain = 0
KBY1 230759Z 36014KT 18/12 A2984 RMK A01 T01760119  RH  069%=      5-min Rain = 0
KBY1 230800Z 00014KT 17/12 A2985 RMK A01 T01700119  RH  072%=      5-min Rain = 0
KBY1 230801Z 01013KT 17/12 A2984 RMK A01 T01670120  RH  074%=      5-min Rain = 0
KBY1 230802Z 00017KT 16/12 A2984 RMK A01 T01640121  RH  076%=      5-min Rain = 0
KBY1 230803Z 36013KT 16/12 A2985 RMK A01 T01630122  RH  077%=      5-min Rain = 0
KBY1 230804Z 36011KT 16/12 A2984 RMK A01 T01620122  RH  077%=      5-min Rain = 0
KBY1 230805Z 36011KT 16/12 A2984 RMK A01 T01610123  RH  078%=      5-min Rain = 0
KBY1 230806Z 00011KT 16/12 A2985 RMK A01 T01610123  RH  078%=      5-min Rain = 0
KBY1 230807Z 00010KT 16/12 A2985 RMK A01 T01610124  RH  079%=      5-min Rain = 0
KBY1 230808Z 02009KT 16/12 A2985 RMK A01 T01620124  RH  078%=      5-min Rain = 0
KBY1 230809Z 01009KT 16/13 A2984 RMK A01 T01630125  RH  078%=      5-min Rain = 0
KBY1 230810Z 35007KT 16/13 A2984 RMK A01 T01640126  RH  078%=      5-min Rain = 0
KBY1 230811Z 33007KT 16/13 A2985 RMK A01 T01640125  RH  078%=      5-min Rain = 0
KBY1 230812Z 34008KT 16/13 A2984 RMK A01 T01630125  RH  078%=      5-min Rain = 0
KBY1 230813Z 35011KT 16/13 A2984 RMK A01 T01620126  RH  079%=      5-min Rain = 0
KBY1 230814Z 35009KT 16/13 A2984 RMK A01 T01630127  RH  079%=      5-min Rain = 0
KBY1 230815Z 35008KT 17/13 A2985 RMK A01 T01650129  RH  079%=      5-min Rain = 0
KBY1 230816Z 36007KT 17/13 A2985 RMK A01 T01660130  RH  079%=      5-min Rain = 0
KBY1 230817Z 00008KT 17/13 A2985 RMK A01 T01680129  RH  078%=      5-min Rain = 0
KBY1 230818Z 01008KT 17/13 A2985 RMK A01 T01670129  RH  078%=      5-min Rain = 0
KBY1 230819Z 02008KT 17/13 A2985 RMK A01 T01660131  RH  079%=      5-min Rain = 0
KBY1 230820Z 03011KT 17/13 A2985 RMK A01 T01670131  RH  079%=      5-min Rain = 0
KBY1 230821Z 03012KT 17/13 A2985 RMK A01 T01670130  RH  079%=      5-min Rain = 0
KBY1 230822Z 03014KT 17/13 A2985 RMK A01 T01680130  RH  078%=      5-min Rain = 0
KBY1 230823Z 03010KT 17/13 A2985 RMK A01 T01660129  RH  079%=      5-min Rain = 0
KBY1 230824Z 02007KT 17/13 A2985 RMK A01 T01650129  RH  079%=      5-min Rain = 0
KBY1 230825Z 02009KT 16/13 A2985 RMK A01 T01640129  RH  080%=      5-min Rain = 0
KBY1 230826Z 03013KT 16/13 A2985 RMK A01 T01630129  RH  081%=      5-min Rain = 0
KBY1 230827Z 04014KT 16/13 A2985 RMK A01 T01620129  RH  081%=      5-min Rain = 0
KBY1 230828Z 03013KT 16/13 A2985 RMK A01 T01620130  RH  081%=      5-min Rain = 0
KBY1 230829Z 04016KT 16/13 A2985 RMK A01 T01610130  RH  082%=      5-min Rain = 0
KBY1 230830Z 03015KT 16/13 A2985 RMK A01 T01610130  RH  082%=      5-min Rain = 0
KBY1 230831Z 03015KT 16/13 A2985 RMK A01 T01600129  RH  082%=      5-min Rain = 0
KBY1 230832Z 02013KT 16/13 A2985 RMK A01 T01590129  RH  083%=      5-min Rain = 0
KBY1 230833Z 03013KT 16/13 A2985 RMK A01 T01580129  RH  083%=      5-min Rain = 0
KBY1 230834Z 03016G21KT 16/13 A2985 RMK A01 T01580129  RH  083%=      5-min Rain = 0
KBY1 230835Z 01014KT 16/13 A2985 RMK A01 T01580128  RH  083%=      5-min Rain = 0
KBY1 230836Z 01011KT 16/13 A2985 RMK A01 T01570128  RH  083%=      5-min Rain = 0
KBY1 230837Z 02012KT 16/13 A2985 RMK A01 T01570128  RH  083%=      5-min Rain = 0
KBY1 230838Z 01008KT 16/13 A2986 RMK A01 T01570128  RH  083%=      5-min Rain = 0
KBY1 230839Z 03007KT 16/13 A2986 RMK A01 T01560129  RH  084%=      5-min Rain = 0
KBY1 230840Z 03007G12KT 16/13 A2986 RMK A01 T01560129  RH  084%=      5-min Rain = 0
KBY1 230841Z 03010KT 16/13 A2986 RMK A01 T01560129  RH  084%=      5-min Rain = 0
KBY1 230842Z 03012G17KT 16/13 A2986 RMK A01 T01560128  RH  083%=      5-min Rain = 0
KBY1 230843Z 02017KT 16/13 A2986 RMK A01 T01560128  RH  083%=      5-min Rain = 0
KBY1 230844Z 02013G18KT 16/13 A2985 RMK A01 T01560128  RH  083%=      5-min Rain = 0
KBY1 230845Z 02014KT 16/13 A2986 RMK A01 T01560128  RH  083%=      5-min Rain = 0
KBY1 230846Z 02013KT 16/13 A2986 RMK A01 T01560127  RH  083%=      5-min Rain = 0
KBY1 230847Z 01012KT 16/13 A2986 RMK A01 T01550127  RH  083%=      5-min Rain = 0
KBY1 230848Z 01013KT 16/13 A2986 RMK A01 T01550127  RH  083%=      5-min Rain = 0
KBY1 230849Z 02009KT 15/13 A2986 RMK A01 T01540127  RH  084%=      5-min Rain = 0
KBY1 230850Z 02014KT 15/13 A2986 RMK A01 T01540126  RH  084%=      5-min Rain = 0
KBY1 230851Z 02016KT 15/13 A2986 RMK A01 T01530126  RH  084%=      5-min Rain = 0
KBY1 230852Z 01011KT 15/13 A2986 RMK A01 T01530127  RH  084%=      5-min Rain = 0
KBY1 230853Z 02011KT 15/13 A2986 RMK A01 T01530127  RH  084%=      5-min Rain = 0
KBY1 230854Z 02012KT 15/13 A2986 RMK A01 T01530127  RH  085%=      5-min Rain = 0
KBY1 230855Z 01010KT 15/13 A2986 RMK A01 T01530127  RH  085%=      5-min Rain = 0
KBY1 230856Z 02013KT 15/13 A2986 RMK A01 T01540128  RH  085%=      5-min Rain = 0
KBY1 230857Z 02014KT 15/13 A2986 RMK A01 T01540127  RH  084%=      5-min Rain = 0
KBY1 230858Z 01012KT 15/13 A2986 RMK A01 T01530127  RH  084%=      5-min Rain = 0
KBY1 230859Z 01012KT 15/13 A2986 RMK A01 T01530127  RH  084%=      5-min Rain = 0
KBY1 230900Z 01013G18KT 15/13 A2986 RMK A01 T01530127  RH  084%=      5-min Rain = 0
KBY1 230901Z 02013KT 15/13 A2986 RMK A01 T01530127  RH  084%=      5-min Rain = 0
KBY1 230902Z 01012KT 15/13 A2986 RMK A01 T01530126  RH  084%=      5-min Rain = 0
KBY1 230903Z 02013G18KT 15/13 A2986 RMK A01 T01520126  RH  084%=      5-min Rain = 0
KBY1 230904Z 03015G20KT 15/13 A2987 RMK A01 T01520126  RH  084%=      5-min Rain = 0
KBY1 230905Z 02014KT 15/13 A2986 RMK A01 T01520126  RH  085%=      5-min Rain = 0
KBY1 230906Z 03014KT 15/13 A2987 RMK A01 T01510126  RH  085%=      5-min Rain = 0
KBY1 230907Z 03015G21KT 15/13 A2986 RMK A01 T01510125  RH  085%=      5-min Rain = 0
KBY1 230908Z 03017KT 15/13 A2987 RMK A01 T01510125  RH  085%=      5-min Rain = 0
KBY1 230909Z 03014KT 15/13 A2987 RMK A01 T01500125  RH  085%=      5-min Rain = 0
KBY1 230910Z 03015KT 15/13 A2987 RMK A01 T01500125  RH  085%=      5-min Rain = 0
KBY1 230911Z 02015KT 15/13 A2987 RMK A01 T01500125  RH  085%=      5-min Rain = 0
KBY1 230912Z 02011KT 15/13 A2987 RMK A01 T01500126  RH  086%=      5-min Rain = 0
KBY1 230913Z 02014KT 15/13 A2987 RMK A01 T01500126  RH  086%=      5-min Rain = 0
KBY1 230914Z 02011KT 15/13 A2987 RMK A01 T01500126  RH  086%=      5-min Rain = 0
KBY1 230915Z 02011KT 15/13 A2987 RMK A01 T01500126  RH  085%=      5-min Rain = 0
KBY1 230916Z 03013KT 15/13 A2987 RMK A01 T01510127  RH  085%=      5-min Rain = 0
KBY1 230917Z 02014KT 15/13 A2987 RMK A01 T01510127  RH  085%=      5-min Rain = 0
KBY1 230918Z 02014KT 15/13 A2987 RMK A01 T01510127  RH  085%=      5-min Rain = 0
KBY1 230919Z 03015KT 15/13 A2987 RMK A01 T01520127  RH  085%=      5-min Rain = 0
KBY1 230920Z 02014G19KT 15/13 A2987 RMK A01 T01520128  RH  085%=      5-min Rain = 0
KBY1 230921Z 02014KT 15/13 A2987 RMK A01 T01520128  RH  085%=      5-min Rain = 0
KBY1 230922Z 02013KT 15/13 A2987 RMK A01 T01530128  RH  085%=      5-min Rain = 0
KBY1 230923Z 02015KT 15/13 A2987 RMK A01 T01530129  RH  085%=      5-min Rain = 0
KBY1 230924Z 02011KT 15/13 A2987 RMK A01 T01530129  RH  085%=      5-min Rain = 0
KBY1 230925Z 02011G17KT 15/13 A2987 RMK A01 T01540130  RH  086%=      5-min Rain = 0
KBY1 230926Z 02014KT 15/13 A2987 RMK A01 T01540130  RH  085%=      5-min Rain = 0
KBY1 230927Z 02015KT 15/13 A2987 RMK A01 T01540130  RH  085%=      5-min Rain = 0
KBY1 230928Z 02012G17KT 16/13 A2987 RMK A01 T01550130  RH  085%=      5-min Rain = 0
KBY1 230929Z 02013KT 16/13 A2987 RMK A01 T01550130  RH  085%=      5-min Rain = 0
KBY1 230930Z 02014KT 16/13 A2987 RMK A01 T01550130  RH  085%=      5-min Rain = 0
KBY1 230931Z 02014KT 16/13 A2987 RMK A01 T01550131  RH  085%=      5-min Rain = 0
KBY1 230932Z 02014KT 16/13 A2987 RMK A01 T01550131  RH  085%=      5-min Rain = 0
KBY1 230933Z 02011KT 16/13 A2987 RMK A01 T01560131  RH  085%=      5-min Rain = 0
KBY1 230934Z 02011KT 16/13 A2988 RMK A01 T01560131  RH  085%=      5-min Rain = 0
KBY1 230935Z 02010KT 16/13 A2988 RMK A01 T01560132  RH  086%=      5-min Rain = 0
KBY1 230936Z 03012KT 16/13 A2988 RMK A01 T01560132  RH  086%=      5-min Rain = 0
KBY1 230937Z 02010KT 16/13 A2988 RMK A01 T01570132  RH  085%=      5-min Rain = 0
KBY1 230938Z 03009KT 16/13 A2988 RMK A01 T01570133  RH  085%=      5-min Rain = 0
KBY1 230939Z 02012KT 16/13 A2988 RMK A01 T01570132  RH  085%=      5-min Rain = 0
KBY1 230940Z 02011KT 16/13 A2987 RMK A01 T01570132  RH  085%=      5-min Rain = 0
KBY1 230941Z 02013KT 16/13 A2987 RMK A01 T01570133  RH  085%=      5-min Rain = 0
KBY1 230942Z 03014KT 16/13 A2987 RMK A01 T01570133  RH  085%=      5-min Rain = 0
KBY1 230943Z 02012KT 16/13 A2988 RMK A01 T01570133  RH  085%=      5-min Rain = 0
KBY1 230944Z 02012KT 16/13 A2988 RMK A01 T01570133  RH  085%=      5-min Rain = 0
KBY1 230945Z 02013KT 16/13 A2987 RMK A01 T01570133  RH  086%=      5-min Rain = 0
KBY1 230946Z 02011KT 16/13 A2987 RMK A01 T01580134  RH  086%=      5-min Rain = 0
KBY1 230947Z 01011KT 16/13 A2987 RMK A01 T01580134  RH  086%=      5-min Rain = 0
KBY1 230948Z 02010KT 16/13 A2988 RMK A01 T01580134  RH  086%=      5-min Rain = 0
KBY1 230949Z 03011KT 16/13 A2988 RMK A01 T01580134  RH  086%=      5-min Rain = 0
KBY1 230950Z 03009KT 16/14 A2988 RMK A01 T01590135  RH  086%=      5-min Rain = 0
KBY1 230951Z 03011KT 16/14 A2987 RMK A01 T01590136  RH  086%=      5-min Rain = 0
KBY1 230952Z 03011KT 16/14 A2987 RMK A01 T01590135  RH  085%=      5-min Rain = 0
KBY1 230953Z 03012KT 16/14 A2987 RMK A01 T01590135  RH  085%=      5-min Rain = 0
KBY1 230954Z 02011KT 16/14 A2987 RMK A01 T01590135  RH  086%=      5-min Rain = 0
KBY1 230955Z 02012KT 16/14 A2987 RMK A01 T01590135  RH  085%=      5-min Rain = 0
KBY1 230956Z 02011KT 16/14 A2988 RMK A01 T01590135  RH  086%=      5-min Rain = 0
KBY1 230957Z 03013KT 16/14 A2988 RMK A01 T01600136  RH  086%=      5-min Rain = 0
KBY1 230958Z 02012KT 16/14 A2988 RMK A01 T01600136  RH  085%=      5-min Rain = 0
KBY1 230959Z 03011KT 16/14 A2988 RMK A01 T01600136  RH  085%=      5-min Rain = 0
KBY1 231000Z 02011KT 16/14 A2988 RMK A01 T01610136  RH  085%=      5-min Rain = 0
KBY1 231001Z 03011KT 16/14 A2987 RMK A01 T01610136  RH  085%=      5-min Rain = 0
KBY1 231002Z 02011KT 16/14 A2988 RMK A01 T01610136  RH  085%=      5-min Rain = 0
KBY1 231003Z 03013KT 16/14 A2988 RMK A01 T01610136  RH  085%=      5-min Rain = 0
KBY1 231004Z 03014KT 16/14 A2987 RMK A01 T01610136  RH  085%=      5-min Rain = 0
KBY1 231005Z 02013KT 16/14 A2987 RMK A01 T01600135  RH  085%=      5-min Rain = 0
KBY1 231006Z 03012KT 16/14 A2987 RMK A01 T01600136  RH  085%=      5-min Rain = 0
KBY1 231007Z 03013KT 16/14 A2987 RMK A01 T01600136  RH  085%=      5-min Rain = 0
KBY1 231008Z 03012KT 16/14 A2987 RMK A01 T01600136  RH  085%=      5-min Rain = 0
KBY1 231009Z 03013KT 16/14 A2987 RMK A01 T01600136  RH  085%=      5-min Rain = 0
KBY1 231010Z 03013KT 16/14 A2987 RMK A01 T01610136  RH  085%=      5-min Rain = 0
KBY1 231011Z 03013KT 16/14 A2987 RMK A01 T01610136  RH  085%=      5-min Rain = 0
KBY1 231012Z 03015KT 16/14 A2987 RMK A01 T01610136  RH  085%=      5-min Rain = 0
KBY1 231013Z 03014KT 16/14 A2987 RMK A01 T01610136  RH  085%=      5-min Rain = 0
KBY1 231014Z 03012KT 16/14 A2987 RMK A01 T01610137  RH  085%=      5-min Rain = 0
KBY1 231015Z 02013KT 16/14 A2987 RMK A01 T01610137  RH  085%=      5-min Rain = 0
KBY1 231016Z 03013KT 16/14 A2987 RMK A01 T01610137  RH  085%=      5-min Rain = 0
KBY1 231017Z 03012KT 16/14 A2987 RMK A01 T01610136  RH  085%=      5-min Rain = 0
KBY1 231018Z 03013KT 16/14 A2987 RMK A01 T01610136  RH  085%=      5-min Rain = 0
KBY1 231019Z 03013KT 16/14 A2987 RMK A01 T01610136  RH  085%=      5-min Rain = 0
KBY1 231020Z 03013KT 16/14 A2987 RMK A01 T01610137  RH  085%=      5-min Rain = 0
KBY1 231021Z 03013KT 16/14 A2987 RMK A01 T01610137  RH  085%=      5-min Rain = 0
KBY1 231022Z 03012KT 16/14 A2987 RMK A01 T01610137  RH  085%=      5-min Rain = 0
KBY1 231023Z 03015KT 16/14 A2987 RMK A01 T01610137  RH  085%=      5-min Rain = 0
KBY1 231024Z 03012KT 16/14 A2987 RMK A01 T01610137  RH  085%=      5-min Rain = 0
KBY1 231025Z 03012KT 16/14 A2987 RMK A01 T01610137  RH  086%=      5-min Rain = 0
KBY1 231026Z 03012KT 16/14 A2987 RMK A01 T01610137  RH  086%=      5-min Rain = 0
KBY1 231027Z 03012KT 16/14 A2987 RMK A01 T01620138  RH  086%=      5-min Rain = 0
KBY1 231028Z 03011KT 16/14 A2987 RMK A01 T01620138  RH  086%=      5-min Rain = 0
KBY1 231029Z 03011KT 16/14 A2987 RMK A01 T01620138  RH  086%=      5-min Rain = 0
KBY1 231030Z 03011KT 16/14 A2987 RMK A01 T01620137  RH  086%=      5-min Rain = 0
KBY1 231031Z 03010KT 16/14 A2987 RMK A01 T01620138  RH  086%=      5-min Rain = 0
KBY1 231032Z 03010KT 16/14 A2987 RMK A01 T01620137  RH  086%=      5-min Rain = 0
KBY1 231033Z 03011KT 16/14 A2987 RMK A01 T01620138  RH  086%=      5-min Rain = 0
KBY1 231034Z 03011KT 16/14 A2987 RMK A01 T01620139  RH  086%=      5-min Rain = 0
KBY1 231035Z 03012KT 16/14 A2987 RMK A01 T01620139  RH  086%=      5-min Rain = 0
KBY1 231036Z 03011KT 16/14 A2987 RMK A01 T01630139  RH  086%=      5-min Rain = 0
KBY1 231037Z 03011KT 16/14 A2987 RMK A01 T01630140  RH  086%=      5-min Rain = 0
KBY1 231038Z 03011KT 16/14 A2987 RMK A01 T01630140  RH  086%=      5-min Rain = 0
KBY1 231039Z 04012KT 16/14 A2987 RMK A01 T01630140  RH  086%=      5-min Rain = 0
KBY1 231040Z 03014KT 16/14 A2987 RMK A01 T01640141  RH  086%=      5-min Rain = 0
KBY1 231041Z 03014KT 16/14 A2987 RMK A01 T01640140  RH  086%=      5-min Rain = 0
KBY1 231042Z 03014KT 16/14 A2987 RMK A01 T01640140  RH  086%=      5-min Rain = 0
KBY1 231043Z 03014KT 16/14 A2987 RMK A01 T01640140  RH  086%=      5-min Rain = 0
KBY1 231044Z 03012KT 16/14 A2987 RMK A01 T01630140  RH  086%=      5-min Rain = 0
KBY1 231045Z 03013KT 16/14 A2987 RMK A01 T01630140  RH  086%=      5-min Rain = 0
KBY1 231046Z 04013KT 16/14 A2987 RMK A01 T01640141  RH  086%=      5-min Rain = 0
KBY1 231047Z 03014KT 16/14 A2987 RMK A01 T01630140  RH  086%=      5-min Rain = 0
KBY1 231048Z 03012KT 16/14 A2987 RMK A01 T01630140  RH  086%=      5-min Rain = 0
KBY1 231049Z 04012KT 16/14 A2987 RMK A01 T01630141  RH  087%=      5-min Rain = 0
KBY1 231050Z 04011KT 16/14 A2987 RMK A01 T01630141  RH  087%=      5-min Rain = 0
KBY1 231051Z 04012KT 16/14 A2987 RMK A01 T01630141  RH  087%=      5-min Rain = 0
KBY1 231052Z 04012KT 16/14 A2987 RMK A01 T01640142  RH  087%=      5-min Rain = 0
KBY1 231053Z 04010KT 16/14 A2987 RMK A01 T01640142  RH  087%=      5-min Rain = 0
KBY1 231054Z 04011KT 16/14 A2987 RMK A01 T01640142  RH  087%=      5-min Rain = 0
KBY1 231055Z 03013KT 16/14 A2987 RMK A01 T01640142  RH  087%=      5-min Rain = 0
KBY1 231056Z 03012KT 16/14 A2987 RMK A01 T01640142  RH  087%=      5-min Rain = 0
KBY1 231057Z 04012KT 16/14 A2987 RMK A01 T01640142  RH  087%=      5-min Rain = 0
KBY1 231058Z 04011KT 16/14 A2987 RMK A01 T01640142  RH  087%=      5-min Rain = 0
KBY1 231059Z 04009KT 17/14 A2987 RMK A01 T01650143  RH  087%=      5-min Rain = 0
KBY1 231100Z 04011KT 17/14 A2987 RMK A01 T01650143  RH  087%=      5-min Rain = 0
KBY1 231101Z 03010KT 16/14 A2987 RMK A01 T01640143  RH  087%=      5-min Rain = 0
KBY1 231102Z 03011KT 16/14 A2987 RMK A01 T01640142  RH  087%=      5-min Rain = 0
KBY1 231103Z 03011KT 17/14 A2988 RMK A01 T01650142  RH  087%=      5-min Rain = 0
KBY1 231104Z 03010KT 16/14 A2988 RMK A01 T01640142  RH  087%=      5-min Rain = 0
KBY1 231105Z 03011KT 16/14 A2988 RMK A01 T01640142  RH  087%=      5-min Rain = 0
KBY1 231106Z 03011KT 16/14 A2988 RMK A01 T01640142  RH  087%=      5-min Rain = 0
KBY1 231107Z 03010KT 16/14 A2988 RMK A01 T01640142  RH  087%=      5-min Rain = 0
KBY1 231108Z 03011KT 16/14 A2988 RMK A01 T01640142  RH  087%=      5-min Rain = 0
KBY1 231109Z 04011KT 16/14 A2988 RMK A01 T01640142  RH  087%=      5-min Rain = 0
KBY1 231110Z 03011KT 16/14 A2988 RMK A01 T01640143  RH  087%=      5-min Rain = 0
KBY1 231111Z 03011KT 16/14 A2988 RMK A01 T01640143  RH  087%=      5-min Rain = 0
KBY1 231112Z 03011KT 16/14 A2988 RMK A01 T01640143  RH  087%=      5-min Rain = 0
KBY1 231113Z 03010KT 16/14 A2988 RMK A01 T01640142  RH  087%=      5-min Rain = 0
KBY1 231114Z 03011KT 16/14 A2988 RMK A01 T01640143  RH  087%=      5-min Rain = 0
KBY1 231115Z 03011KT 16/14 A2988 RMK A01 T01640143  RH  087%=      5-min Rain = 0
KBY1 231116Z 04008KT 16/14 A2988 RMK A01 T01640142  RH  087%=      5-min Rain = 0
KBY1 231117Z 04008KT 16/14 A2988 RMK A01 T01640143  RH  087%=      5-min Rain = 0
KBY1 231118Z 04009KT 16/14 A2988 RMK A01 T01640143  RH  087%=      5-min Rain = 0
KBY1 231119Z 04010KT 16/14 A2988 RMK A01 T01640143  RH  087%=      5-min Rain = 0
KBY1 231120Z 04011KT 16/14 A2988 RMK A01 T01640143  RH  087%=      5-min Rain = 0
KBY1 231121Z 03012KT 16/14 A2988 RMK A01 T01640143  RH  087%=      5-min Rain = 0
KBY1 231122Z 03011KT 16/14 A2988 RMK A01 T01640143  RH  087%=      5-min Rain = 0
KBY1 231123Z 03013KT 16/14 A2988 RMK A01 T01640143  RH  087%=      5-min Rain = 0
KBY1 231124Z 04011KT 16/14 A2988 RMK A01 T01640143  RH  087%=      5-min Rain = 0
KBY1 231125Z 04011KT 16/14 A2988 RMK A01 T01640143  RH  087%=      5-min Rain = 0
KBY1 231126Z 04010KT 17/14 A2988 RMK A01 T01650143  RH  087%=      5-min Rain = 0
KBY1 231127Z 04011KT 17/14 A2988 RMK A01 T01650143  RH  087%=      5-min Rain = 0
KBY1 231128Z 04012KT 17/14 A2988 RMK A01 T01650143  RH  087%=      5-min Rain = 0
KBY1 231129Z 04010KT 17/14 A2988 RMK A01 T01650143  RH  087%=      5-min Rain = 0
KBY1 231130Z 04010KT 17/14 A2988 RMK A01 T01650143  RH  087%=      5-min Rain = 0
KBY1 231131Z 05009KT 17/14 A2988 RMK A01 T01650143  RH  087%=      5-min Rain = 0
KBY1 231132Z 05009KT 17/14 A2988 RMK A01 T01650143  RH  087%=      5-min Rain = 0
KBY1 231133Z 06009KT 17/14 A2988 RMK A01 T01650143  RH  087%=      5-min Rain = 0
KBY1 231134Z 06009KT 16/14 A2988 RMK A01 T01640143  RH  087%=      5-min Rain = 0
KBY1 231135Z 05008KT 16/14 A2988 RMK A01 T01640143  RH  087%=      5-min Rain = 0
KBY1 231136Z 05007KT 16/14 A2988 RMK A01 T01640143  RH  087%=      5-min Rain = 0
KBY1 231137Z 06005KT 17/14 A2988 RMK A01 T01650144  RH  087%=      5-min Rain = 0
KBY1 231138Z 06005KT 17/14 A2988 RMK A01 T01650144  RH  087%=      5-min Rain = 0
KBY1 231139Z 07006KT 17/14 A2989 RMK A01 T01650144  RH  087%=      5-min Rain = 0
KBY1 231140Z 11004KT 17/14 A2989 RMK A01 T01650144  RH  087%=      5-min Rain = 0
KBY1 231141Z 15003KT 17/14 A2989 RMK A01 T01650144  RH  087%=      5-min Rain = 0
KBY1 231142Z 10003KT 17/15 A2989 RMK A01 T01650145  RH  088%=      5-min Rain = 0
KBY1 231143Z 13002KT 17/15 A2989 RMK A01 T01650146  RH  088%=      5-min Rain = 0
KBY1 231144Z 09002KT 17/15 A2989 RMK A01 T01650145  RH  088%=      5-min Rain = 0
KBY1 231145Z 09002KT 17/15 A2989 RMK A01 T01650145  RH  088%=      5-min Rain = 0
KBY1 231146Z 10004KT 17/15 A2988 RMK A01 T01660145  RH  088%=      5-min Rain = 0
KBY1 231147Z 07005KT 17/15 A2988 RMK A01 T01660146  RH  088%=      5-min Rain = 0
KBY1 231148Z 08006KT 17/15 A2988 RMK A01 T01660146  RH  088%=      5-min Rain = 0
KBY1 231149Z 06007KT 17/15 A2988 RMK A01 T01660147  RH  088%=      5-min Rain = 0
KBY1 231150Z 07006KT 17/15 A2988 RMK A01 T01670147  RH  088%=      5-min Rain = 0
KBY1 231151Z 07008KT 17/15 A2988 RMK A01 T01670147  RH  088%=      5-min Rain = 0
KBY1 231152Z 07008KT 17/15 A2988 RMK A01 T01670148  RH  088%=      5-min Rain = 0
KBY1 231153Z 08007KT 17/15 A2988 RMK A01 T01680148  RH  088%=      5-min Rain = 0
KBY1 231154Z 06006KT 17/15 A2988 RMK A01 T01680148  RH  088%=      5-min Rain = 0
KBY1 231155Z 07007KT 17/15 A2988 RMK A01 T01680148  RH  088%=      5-min Rain = 0
KBY1 231156Z 07007KT 17/15 A2988 RMK A01 T01670148  RH  088%=      5-min Rain = 0
KBY1 231157Z 08006KT 17/15 A2989 RMK A01 T01680148  RH  088%=      5-min Rain = 0
KBY1 231158Z 08005KT 17/15 A2988 RMK A01 T01680148  RH  088%=      5-min Rain = 0
KBY1 231159Z 08009KT 17/15 A2988 RMK A01 T01680148  RH  088%=      5-min Rain = 0
KBY1 231200Z 07006KT 17/15 A2989 RMK A01 T01680149  RH  089%=      5-min Rain = 0
KBY1 231201Z 07005KT 17/15 A2989 RMK A01 T01680149  RH  088%=      5-min Rain = 0
KBY1 231202Z 06004KT 17/15 A2989 RMK A01 T01680149  RH  088%=      5-min Rain = 0
KBY1 231203Z 06007KT 17/15 A2989 RMK A01 T01690149  RH  088%=      5-min Rain = 0
KBY1 231204Z 05006KT 17/15 A2989 RMK A01 T01690149  RH  088%=      5-min Rain = 0
KBY1 231205Z 07005KT 17/15 A2989 RMK A01 T01690150  RH  089%=      5-min Rain = 0
KBY1 231206Z 05005KT 17/15 A2989 RMK A01 T01690150  RH  088%=      5-min Rain = 0
KBY1 231207Z 06007KT 17/15 A2989 RMK A01 T01700150  RH  088%=      5-min Rain = 0
KBY1 231208Z 06004KT 17/15 A2989 RMK A01 T01690150  RH  088%=      5-min Rain = 0
KBY1 231209Z 07004KT 17/15 A2989 RMK A01 T01700150  RH  088%=      5-min Rain = 0
KBY1 231210Z 07005KT 17/15 A2989 RMK A01 T01700150  RH  088%=      5-min Rain = 0
KBY1 231211Z 08005KT 17/15 A2989 RMK A01 T01700150  RH  088%=      5-min Rain = 0
KBY1 231212Z 08005KT 17/15 A2989 RMK A01 T01690150  RH  088%=      5-min Rain = 0
KBY1 231213Z 07004KT 17/15 A2989 RMK A01 T01690149  RH  088%=      5-min Rain = 0
KBY1 231214Z 07005KT 17/15 A2989 RMK A01 T01690149  RH  088%=      5-min Rain = 0
KBY1 231215Z 06004KT 17/15 A2989 RMK A01 T01690149  RH  088%=      5-min Rain = 0
KBY1 231216Z 07003KT 17/15 A2988 RMK A01 T01690150  RH  088%=      5-min Rain = 0
KBY1 231217Z 04002KT 17/15 A2988 RMK A01 T01690150  RH  088%=      5-min Rain = 0
KBY1 231218Z 07003KT 17/15 A2988 RMK A01 T01690150  RH  088%=      5-min Rain = 0
KBY1 231219Z 08003KT 17/15 A2988 RMK A01 T01690150  RH  089%=      5-min Rain = 0
KBY1 231220Z 09004KT 17/15 A2988 RMK A01 T01690150  RH  089%=      5-min Rain = 0
KBY1 231221Z 07004KT 17/15 A2988 RMK A01 T01690150  RH  089%=      5-min Rain = 0
KBY1 231222Z 07007KT 17/15 A2988 RMK A01 T01690151  RH  089%=      5-min Rain = 0
KBY1 231223Z 06006KT 17/15 A2988 RMK A01 T01700151  RH  089%=      5-min Rain = 0
KBY1 231224Z 06004KT 17/15 A2988 RMK A01 T01700151  RH  089%=      5-min Rain = 0
KBY1 231225Z 08004KT 17/15 A2988 RMK A01 T01710152  RH  089%=      5-min Rain = 0
KBY1 231226Z 07006KT 17/15 A2988 RMK A01 T01700152  RH  089%=      5-min Rain = 0
KBY1 231227Z 07005KT 17/15 A2988 RMK A01 T01700152  RH  089%=      5-min Rain = 0
KBY1 231228Z 08005KT 17/15 A2988 RMK A01 T01700152  RH  089%=      5-min Rain = 0
KBY1 231229Z 06007KT 17/15 A2988 RMK A01 T01700152  RH  089%=      5-min Rain = 0
KBY1 231230Z 06007KT 17/15 A2988 RMK A01 T01710152  RH  089%=      5-min Rain = 0
KBY1 231231Z 05009KT 17/15 A2988 RMK A01 T01710152  RH  089%=      5-min Rain = 0
KBY1 231232Z 05007KT 17/15 A2988 RMK A01 T01710152  RH  089%=      5-min Rain = 0
KBY1 231233Z 06007KT 17/15 A2988 RMK A01 T01710152  RH  089%=      5-min Rain = 0
KBY1 231234Z 06007KT 17/15 A2988 RMK A01 T01710152  RH  089%=      5-min Rain = 0
KBY1 231235Z 05007KT 17/15 A2988 RMK A01 T01710152  RH  089%=      5-min Rain = 0
KBY1 231236Z 06006KT 17/15 A2988 RMK A01 T01710152  RH  089%=      5-min Rain = 0
KBY1 231237Z 07006KT 17/15 A2988 RMK A01 T01710153  RH  089%=      5-min Rain = 0
KBY1 231238Z 07005KT 17/15 A2988 RMK A01 T01710153  RH  089%=      5-min Rain = 0
KBY1 231239Z 07006KT 17/15 A2988 RMK A01 T01710153  RH  089%=      5-min Rain = 0
KBY1 231240Z 07005KT 17/15 A2988 RMK A01 T01720154  RH  089%=      5-min Rain = 0
KBY1 231241Z 07005KT 17/15 A2988 RMK A01 T01710154  RH  089%=      5-min Rain = 0
KBY1 231242Z 08004KT 17/15 A2988 RMK A01 T01710153  RH  089%=      5-min Rain = 0
KBY1 231243Z 07005KT 17/15 A2988 RMK A01 T01720153  RH  089%=      5-min Rain = 0
KBY1 231244Z 07006KT 17/15 A2988 RMK A01 T01710153  RH  089%=      5-min Rain = 0
KBY1 231245Z 07005KT 17/15 A2988 RMK A01 T01710153  RH  089%=      5-min Rain = 0
KBY1 231246Z 08005KT 17/15 A2988 RMK A01 T01710152  RH  089%=      5-min Rain = 0
KBY1 231247Z 09005KT 17/15 A2988 RMK A01 T01710152  RH  089%=      5-min Rain = 0
KBY1 231248Z 08006KT 17/15 A2988 RMK A01 T01700152  RH  089%=      5-min Rain = 0
KBY1 231249Z 08007KT 17/15 A2988 RMK A01 T01700152  RH  089%=      5-min Rain = 0
KBY1 231250Z 09005KT 17/15 A2988 RMK A01 T01690151  RH  089%=      5-min Rain = 0
KBY1 231251Z 10006KT 17/15 A2988 RMK A01 T01700152  RH  089%=      5-min Rain = 0
KBY1 231252Z 07008KT 17/15 A2988 RMK A01 T01690152  RH  089%=      5-min Rain = 0
KBY1 231253Z 08006KT 17/15 A2988 RMK A01 T01690151  RH  089%=      5-min Rain = 0
KBY1 231254Z 08006KT 17/15 A2988 RMK A01 T01690152  RH  090%=      5-min Rain = 0
KBY1 231255Z 08005KT 17/15 A2988 RMK A01 T01700153  RH  090%=      5-min Rain = 0
KBY1 231256Z 09007KT 17/15 A2988 RMK A01 T01690153  RH  090%=      5-min Rain = 0
KBY1 231257Z 08006KT 17/15 A2988 RMK A01 T01700152  RH  090%=      5-min Rain = 0
KBY1 231258Z 08006KT 17/15 A2988 RMK A01 T01700154  RH  090%=      5-min Rain = 0
KBY1 231259Z 09007KT 17/15 A2988 RMK A01 T01700154  RH  090%=      5-min Rain = 0
KBY1 231300Z 09007KT 17/15 A2988 RMK A01 T01710154  RH  090%=      5-min Rain = 0
KBY1 231301Z 10006KT 17/15 A2988 RMK A01 T01710154  RH  090%=      5-min Rain = 0
KBY1 231302Z 09006KT 17/15 A2988 RMK A01 T01710154  RH  090%=      5-min Rain = 0
KBY1 231303Z 08006KT 17/16 A2988 RMK A01 T01710155  RH  090%=      5-min Rain = 0
KBY1 231304Z 09006KT 17/16 A2988 RMK A01 T01710155  RH  090%=      5-min Rain = 0
KBY1 231305Z 10004KT 17/15 A2988 RMK A01 T01710154  RH  090%=      5-min Rain = 0
KBY1 231306Z 11002KT 17/15 A2988 RMK A01 T01710154  RH  089%=      5-min Rain = 0
KBY1 231307Z 09003KT 17/16 A2988 RMK A01 T01720155  RH  090%=      5-min Rain = 0
KBY1 231308Z 10002KT 17/15 A2988 RMK A01 T01710154  RH  090%=      5-min Rain = 0
KBY1 231309Z 09002KT 17/16 A2988 RMK A01 T01710155  RH  090%=      5-min Rain = 0
KBY1 231310Z 12001KT 17/15 A2988 RMK A01 T01710154  RH  090%=      5-min Rain = 0
KBY1 231311Z 08001KT 17/16 A2988 RMK A01 T01720156  RH  090%=      5-min Rain = 0
KBY1 231312Z 10002KT 17/16 A2988 RMK A01 T01720156  RH  090%=      5-min Rain = 0
KBY1 231313Z 10004KT 17/16 A2988 RMK A01 T01730157  RH  090%=      5-min Rain = 0
KBY1 231314Z 10005KT 17/16 A2988 RMK A01 T01730156  RH  090%=      5-min Rain = 0
KBY1 231315Z 09004KT 17/16 A2988 RMK A01 T01730157  RH  090%=      5-min Rain = 0
KBY1 231316Z 08005KT 17/16 A2988 RMK A01 T01740157  RH  090%=      5-min Rain = 0
KBY1 231317Z 08007KT 17/16 A2988 RMK A01 T01740157  RH  090%=      5-min Rain = 0
KBY1 231318Z 08007KT 17/16 A2988 RMK A01 T01740157  RH  090%=      5-min Rain = 0
KBY1 231319Z 08007KT 17/16 A2988 RMK A01 T01740158  RH  090%=      5-min Rain = 0
KBY1 231320Z 08006KT 17/16 A2988 RMK A01 T01740158  RH  090%=      5-min Rain = 0
KBY1 231321Z 08005KT 18/16 A2988 RMK A01 T01750158  RH  090%=      5-min Rain = 0
KBY1 231322Z 09005KT 18/16 A2988 RMK A01 T01750158  RH  090%=      5-min Rain = 0
KBY1 231323Z 09005KT 18/16 A2988 RMK A01 T01750158  RH  090%=      5-min Rain = 0
KBY1 231324Z 09004KT 18/16 A2988 RMK A01 T01750159  RH  090%=      5-min Rain = 0
KBY1 231325Z 08005KT 18/16 A2988 RMK A01 T01750159  RH  090%=      5-min Rain = 0
KBY1 231326Z 08005KT 18/16 A2988 RMK A01 T01760160  RH  090%=      5-min Rain = 0
KBY1 231327Z 08005KT 18/16 A2988 RMK A01 T01760160  RH  090%=      5-min Rain = 0
KBY1 231328Z 09005KT 18/16 A2988 RMK A01 T01760160  RH  090%=      5-min Rain = 0
KBY1 231329Z 08005KT 18/16 A2988 RMK A01 T01770161  RH  090%=      5-min Rain = 0
KBY1 231330Z 08005KT 18/16 A2988 RMK A01 T01780161  RH  090%=      5-min Rain = 0
KBY1 231331Z 08005KT 18/16 A2988 RMK A01 T01780161  RH  090%=      5-min Rain = 0
KBY1 231332Z 07006KT 18/16 A2988 RMK A01 T01780161  RH  090%=      5-min Rain = 0
KBY1 231333Z 08005KT 18/16 A2988 RMK A01 T01780161  RH  090%=      5-min Rain = 0
KBY1 231334Z 07005KT 18/16 A2988 RMK A01 T01780161  RH  090%=      5-min Rain = 0
KBY1 231335Z 08004KT 18/16 A2988 RMK A01 T01780161  RH  090%=      5-min Rain = 0
KBY1 231336Z 08005KT 18/16 A2988 RMK A01 T01780162  RH  090%=      5-min Rain = 0
KBY1 231337Z 07006KT 18/16 A2988 RMK A01 T01780162  RH  090%=      5-min Rain = 0
KBY1 231338Z 08006KT 18/16 A2988 RMK A01 T01790163  RH  091%=      5-min Rain = 0
KBY1 231339Z 07007KT 18/16 A2988 RMK A01 T01790164  RH  091%=      5-min Rain = 0
KBY1 231340Z 07007KT 18/16 A2988 RMK A01 T01790164  RH  091%=      5-min Rain = 0
KBY1 231341Z 07007KT 18/17 A2988 RMK A01 T01800165  RH  091%=      5-min Rain = 0
KBY1 231342Z 07007KT 18/17 A2988 RMK A01 T01800165  RH  091%=      5-min Rain = 0
KBY1 231343Z 08006KT 18/17 A2988 RMK A01 T01810166  RH  091%=      5-min Rain = 0
KBY1 231344Z 09006KT 18/17 A2988 RMK A01 T01810165  RH  090%=      5-min Rain = 0
KBY1 231345Z 08006KT 18/16 A2988 RMK A01 T01810164  RH  090%=      5-min Rain = 0
KBY1 231346Z 08005KT 18/17 A2988 RMK A01 T01810165  RH  090%=      5-min Rain = 0
KBY1 231347Z 08005KT 18/17 A2988 RMK A01 T01810165  RH  090%=      5-min Rain = 0
KBY1 231348Z 09004KT 18/17 A2988 RMK A01 T01820166  RH  091%=      5-min Rain = 0
KBY1 231349Z 08005KT 18/17 A2988 RMK A01 T01820167  RH  091%=      5-min Rain = 0
KBY1 231350Z 08004KT 18/17 A2988 RMK A01 T01830167  RH  091%=      5-min Rain = 0
KBY1 231351Z 09006KT 18/17 A2988 RMK A01 T01830167  RH  090%=      5-min Rain = 0
KBY1 231352Z 09005KT 18/17 A2988 RMK A01 T01830166  RH  090%=      5-min Rain = 0
KBY1 231353Z 09004KT 18/17 A2988 RMK A01 T01830168  RH  091%=      5-min Rain = 0
KBY1 231354Z 08004KT 18/17 A2988 RMK A01 T01830168  RH  091%=      5-min Rain = 0
KBY1 231355Z 08005KT 18/17 A2988 RMK A01 T01840169  RH  091%=      5-min Rain = 0
KBY1 231356Z 09006KT 18/17 A2988 RMK A01 T01840169  RH  091%=      5-min Rain = 0
KBY1 231357Z 09005KT 19/17 A2988 RMK A01 T01850170  RH  091%=      5-min Rain = 0
KBY1 231358Z 09005KT 19/17 A2988 RMK A01 T01850171  RH  091%=      5-min Rain = 0
KBY1 231359Z 10006KT 19/17 A2988 RMK A01 T01860171  RH  091%=      5-min Rain = 0
KBY1 231400Z 10005KT 19/17 A2988 RMK A01 T01860171  RH  091%=      5-min Rain = 0
KBY1 231401Z 10005KT 19/17 A2988 RMK A01 T01870172  RH  091%=      5-min Rain = 0
KBY1 231402Z 10004KT 19/17 A2988 RMK A01 T01880173  RH  091%=      5-min Rain = 0
KBY1 231403Z 09005KT 19/17 A2988 RMK A01 T01880173  RH  091%=      5-min Rain = 0
KBY1 231404Z 09005KT 19/17 A2988 RMK A01 T01880172  RH  091%=      5-min Rain = 0
KBY1 231405Z 09005KT 19/17 A2988 RMK A01 T01880173  RH  091%=      5-min Rain = 0
KBY1 231406Z 09005KT 19/17 A2988 RMK A01 T01890174  RH  091%=      5-min Rain = 0
KBY1 231407Z 09007KT 19/17 A2988 RMK A01 T01890174  RH  091%=      5-min Rain = 0
KBY1 231408Z 09005KT 19/17 A2988 RMK A01 T01890174  RH  091%=      5-min Rain = 0
KBY1 231409Z 10003KT 19/18 A2988 RMK A01 T01890175  RH  091%=      5-min Rain = 0
KBY1 231410Z 11005KT 19/18 A2988 RMK A01 T01900176  RH  091%=      5-min Rain = 0
KBY1 231411Z 10005KT 19/18 A2988 RMK A01 T01900176  RH  091%=      5-min Rain = 0
KBY1 231412Z 10005KT 19/18 A2988 RMK A01 T01910177  RH  091%=      5-min Rain = 0
KBY1 231413Z 11005KT 19/18 A2988 RMK A01 T01910177  RH  091%=      5-min Rain = 0
KBY1 231414Z 11005KT 19/18 A2988 RMK A01 T01910177  RH  091%=      5-min Rain = 0
KBY1 231415Z 12004KT 19/18 A2988 RMK A01 T01910176  RH  091%=      5-min Rain = 0
KBY1 231416Z 11005KT 19/18 A2988 RMK A01 T01910177  RH  091%=      5-min Rain = 0
KBY1 231417Z 10005KT 19/18 A2988 RMK A01 T01920177  RH  092%=      5-min Rain = 0
KBY1 231418Z 10005KT 19/18 A2988 RMK A01 T01920178  RH  092%=      5-min Rain = 0
KBY1 231419Z 10005KT 19/18 A2988 RMK A01 T01920178  RH  092%=      5-min Rain = 0
KBY1 231420Z 10004KT 19/18 A2988 RMK A01 T01920178  RH  092%=      5-min Rain = 0
KBY1 231421Z 11003KT 19/18 A2988 RMK A01 T01930179  RH  092%=      5-min Rain = 0
KBY1 231422Z 11005KT 19/18 A2988 RMK A01 T01930179  RH  092%=      5-min Rain = 0
KBY1 231423Z 11003KT 19/18 A2987 RMK A01 T01930180  RH  092%=      5-min Rain = 0
KBY1 231424Z 17002KT 19/18 A2987 RMK A01 T01930179  RH  091%=      5-min Rain = 0
KBY1 231425Z 22002KT 19/18 A2988 RMK A01 T01940180  RH  092%=      5-min Rain = 0
KBY1 231426Z 25005KT 19/18 A2988 RMK A01 T01940180  RH  092%=      5-min Rain = 0
KBY1 231427Z 25007KT 19/18 A2988 RMK A01 T01940178  RH  090%=      5-min Rain = 0
KBY1 231428Z 28008KT 19/17 A2988 RMK A01 T01910167  RH  086%=      5-min Rain = 0
KBY1 231429Z 29007KT 19/16 A2988 RMK A01 T01870159  RH  084%=      5-min Rain = 0
KBY1 231430Z 29006KT 18/16 A2988 RMK A01 T01830159  RH  086%=      5-min Rain = 0
KBY1 231431Z 28008KT 18/16 A2988 RMK A01 T01820160  RH  087%=      5-min Rain = 0
KBY1 231432Z 27007KT 18/16 A2988 RMK A01 T01810162  RH  088%=      5-min Rain = 0
KBY1 231433Z 29007KT 18/17 A2988 RMK A01 T01810166  RH  091%=      5-min Rain = 0
KBY1 231434Z 27005KT 18/17 A2988 RMK A01 T01840170  RH  092%=      5-min Rain = 0
KBY1 231435Z 25005KT 19/17 A2988 RMK A01 T01850170  RH  091%=      5-min Rain = 0
KBY1 231436Z 20002KT 19/17 A2988 RMK A01 T01860172  RH  092%=      5-min Rain = 0
KBY1 231437Z 12001KT 19/18 A2988 RMK A01 T01880175  RH  093%=      5-min Rain = 0
KBY1 231438Z 14003KT 19/18 A2988 RMK A01 T01890176  RH  093%=      5-min Rain = 0
KBY1 231439Z 12003KT 19/18 A2988 RMK A01 T01900177  RH  092%=      5-min Rain = 0
KBY1 231440Z 11003KT 19/18 A2988 RMK A01 T01910176  RH  091%=      5-min Rain = 0
KBY1 231441Z 10003KT 19/18 A2988 RMK A01 T01920176  RH  090%=      5-min Rain = 0
KBY1 231442Z 07002KT 19/17 A2988 RMK A01 T01920173  RH  089%=      5-min Rain = 0
KBY1 231443Z 26001KT 19/18 A2988 RMK A01 T01940177  RH  090%=      5-min Rain = 0
KBY1 231444Z 25004KT 19/18 A2988 RMK A01 T01940175  RH  088%=      5-min Rain = 0
KBY1 231445Z 26004KT 19/17 A2988 RMK A01 T01940173  RH  088%=      5-min Rain = 0
KBY1 231446Z 28004KT 19/17 A2988 RMK A01 T01930174  RH  089%=      5-min Rain = 0
KBY1 231447Z 28002KT 19/17 A2988 RMK A01 T01930174  RH  089%=      5-min Rain = 0
KBY1 231448Z 29003KT 20/18 A2988 RMK A01 T01950176  RH  089%=      5-min Rain = 0
KBY1 231449Z 33004KT 20/18 A2988 RMK A01 T01960177  RH  089%=      5-min Rain = 0
KBY1 231450Z 33007KT 20/17 A2988 RMK A01 T01970172  RH  086%=      5-min Rain = 0
KBY1 231451Z 33007KT 20/16 A2988 RMK A01 T01950164  RH  083%=      5-min Rain = 0
KBY1 231452Z 35006KT 19/16 A2988 RMK A01 T01930164  RH  083%=      5-min Rain = 0
KBY1 231453Z 34004KT 19/17 A2988 RMK A01 T01920165  RH  084%=      5-min Rain = 0
KBY1 231454Z 33005KT 19/17 A2988 RMK A01 T01910165  RH  084%=      5-min Rain = 0
KBY1 231455Z 31004KT 19/17 A2988 RMK A01 T01910165  RH  085%=      5-min Rain = 0
KBY1 231456Z 29005KT 19/17 A2988 RMK A01 T01900165  RH  085%=      5-min Rain = 0
KBY1 231457Z 28005KT 19/17 A2988 RMK A01 T01900167  RH  086%=      5-min Rain = 0
KBY1 231458Z 27006KT 19/17 A2988 RMK A01 T01900168  RH  087%=      5-min Rain = 0
KBY1 231459Z 27009KT 19/17 A2988 RMK A01 T01900166  RH  086%=      5-min Rain = 0
KBY1 231500Z 27007KT 19/16 A2988 RMK A01 T01880163  RH  086%=      5-min Rain = 0
KBY1 231501Z 31004KT 19/16 A2988 RMK A01 T01870163  RH  086%=      5-min Rain = 0
KBY1 231502Z 00003KT 19/16 A2988 RMK A01 T01860164  RH  087%=      5-min Rain = 0
KBY1 231503Z 01005KT 19/17 A2988 RMK A01 T01860165  RH  088%=      5-min Rain = 0
KBY1 231504Z 01005KT 19/17 A2988 RMK A01 T01870167  RH  088%=      5-min Rain = 0
KBY1 231505Z 03004KT 19/17 A2988 RMK A01 T01880168  RH  088%=      5-min Rain = 0
KBY1 231506Z 02003KT 19/17 A2988 RMK A01 T01880169  RH  088%=      5-min Rain = 0
KBY1 231507Z 02003KT 19/17 A2988 RMK A01 T01890167  RH  087%=      5-min Rain = 0
KBY1 231508Z 35003KT 19/17 A2988 RMK A01 T01900169  RH  088%=      5-min Rain = 0
KBY1 231509Z 35004KT 19/17 A2988 RMK A01 T01910171  RH  088%=      5-min Rain = 0
KBY1 231510Z 36004KT 19/17 A2988 RMK A01 T01920171  RH  088%=      5-min Rain = 0
KBY1 231511Z 35004KT 19/17 A2988 RMK A01 T01930172  RH  087%=      5-min Rain = 0
KBY1 231512Z 34004KT 20/17 A2988 RMK A01 T01950173  RH  087%=      5-min Rain = 0
KBY1 231513Z 34004KT 20/18 A2988 RMK A01 T01970175  RH  088%=      5-min Rain = 0
KBY1 231514Z 34004KT 20/18 A2988 RMK A01 T01980177  RH  087%=      5-min Rain = 0
KBY1 231515Z 34003KT 20/18 A2988 RMK A01 T02000179  RH  087%=      5-min Rain = 0
KBY1 231516Z 35004KT 20/18 A2988 RMK A01 T02030180  RH  087%=      5-min Rain = 0
KBY1 231517Z 36003KT 21/18 A2988 RMK A01 T02050182  RH  086%=      5-min Rain = 0
KBY1 231518Z 35004KT 21/18 A2988 RMK A01 T02070182  RH  086%=      5-min Rain = 0
KBY1 231519Z 35002KT 21/18 A2988 RMK A01 T02090181  RH  084%=      5-min Rain = 0
KBY1 231520Z 29003KT 21/18 A2988 RMK A01 T02090181  RH  084%=      5-min Rain = 0
KBY1 231521Z 26006KT 21/18 A2988 RMK A01 T02110182  RH  084%=      5-min Rain = 0
KBY1 231522Z 27009KT 21/18 A2988 RMK A01 T02110181  RH  083%=      5-min Rain = 0
KBY1 231523Z 26009KT 21/18 A2989 RMK A01 T02100177  RH  081%=      5-min Rain = 0
KBY1 231524Z 26010KT 21/17 A2989 RMK A01 T02080174  RH  081%=      5-min Rain = 0
KBY1 231525Z 27008KT 20/17 A2989 RMK A01 T02040171  RH  081%=      5-min Rain = 0
KBY1 231526Z 31005KT 20/17 A2988 RMK A01 T02020172  RH  083%=      5-min Rain = 0
KBY1 231527Z 34004KT 20/17 A2988 RMK A01 T02010172  RH  083%=      5-min Rain = 0
KBY1 231528Z 02005KT 20/17 A2988 RMK A01 T02010172  RH  083%=      5-min Rain = 0
KBY1 231529Z 00006KT 20/17 A2988 RMK A01 T02010172  RH  083%=      5-min Rain = 0
KBY1 231530Z 00006G13KT 20/17 A2988 RMK A01 T02010173  RH  084%=      5-min Rain = 0
KBY1 231531Z 35010KT 20/17 A2988 RMK A01 T02010168  RH  081%=      5-min Rain = 0
KBY1 231532Z 35012KT 20/16 A2988 RMK A01 T01970161  RH  080%=      5-min Rain = 0
KBY1 231533Z 34010KT 19/16 A2988 RMK A01 T01920159  RH  081%=      5-min Rain = 0
KBY1 231534Z 33010KT 19/16 A2988 RMK A01 T01900161  RH  083%=      5-min Rain = 0
KBY1 231535Z 34009KT 19/16 A2988 RMK A01 T01900162  RH  084%=      5-min Rain = 0
KBY1 231536Z 32008KT 19/16 A2988 RMK A01 T01900163  RH  085%=      5-min Rain = 0
KBY1 231537Z 33008KT 19/16 A2988 RMK A01 T01900163  RH  084%=      5-min Rain = 0
KBY1 231538Z 33012KT 19/16 A2988 RMK A01 T01910162  RH  083%=      5-min Rain = 0
KBY1 231539Z 34013KT 19/16 A2988 RMK A01 T01900159  RH  082%=      5-min Rain = 0
KBY1 231540Z 35014G19KT 19/15 A2988 RMK A01 T01870152  RH  080%=      5-min Rain = 0
KBY1 231541Z 35011KT 18/15 A2988 RMK A01 T01840152  RH  082%=      5-min Rain = 0
KBY1 231542Z 36011KT 18/15 A2988 RMK A01 T01830153  RH  083%=      5-min Rain = 0
KBY1 231543Z 36011KT 18/16 A2987 RMK A01 T01830155  RH  084%=      5-min Rain = 0
KBY1 231544Z 01011KT 18/16 A2987 RMK A01 T01840156  RH  084%=      5-min Rain = 0
KBY1 231545Z 00012KT 19/16 A2987 RMK A01 T01850155  RH  083%=      5-min Rain = 0
KBY1 231546Z 00011KT 18/15 A2987 RMK A01 T01840154  RH  082%=      5-min Rain = 0
KBY1 231547Z 00010KT 18/15 A2988 RMK A01 T01840153  RH  082%=      5-min Rain = 0
KBY1 231548Z 01012KT 18/15 A2988 RMK A01 T01810148  RH  081%=      5-min Rain = 0
KBY1 231549Z 36010KT 18/15 A2988 RMK A01 T01780145  RH  081%=      5-min Rain = 0
KBY1 231550Z 00009KT 18/15 A2988 RMK A01 T01760145  RH  082%=      5-min Rain = 0
KBY1 231551Z 00011KT 17/14 A2988 RMK A01 T01740144  RH  082%=      5-min Rain = 0
KBY1 231552Z 00010KT 17/14 A2987 RMK A01 T01730144  RH  083%=      5-min Rain = 0
KBY1 231553Z 35009KT 17/14 A2987 RMK A01 T01730144  RH  083%=      5-min Rain = 0
KBY1 231554Z 35011KT 17/14 A2988 RMK A01 T01720143  RH  083%=      5-min Rain = 0
KBY1 231555Z 35009KT 17/14 A2988 RMK A01 T01720143  RH  083%=      5-min Rain = 0
KBY1 231556Z 35009KT 17/14 A2988 RMK A01 T01710143  RH  083%=      5-min Rain = 0
KBY1 231557Z 35011KT 17/14 A2988 RMK A01 T01710142  RH  083%=      5-min Rain = 0
KBY1 231558Z 35011KT 17/14 A2988 RMK A01 T01710141  RH  083%=      5-min Rain = 0
KBY1 231559Z 35011KT 17/14 A2988 RMK A01 T01700140  RH  083%=      5-min Rain = 0
KBY1 231600Z 35011KT 17/14 A2988 RMK A01 T01690140  RH  083%=      5-min Rain = 0
KBY1 231601Z 35011KT 17/14 A2988 RMK A01 T01690141  RH  083%=      5-min Rain = 0
KBY1 231602Z 35011G16KT 17/14 A2988 RMK A01 T01690141  RH  083%=      5-min Rain = 0
KBY1 231603Z 35013KT 17/14 A2988 RMK A01 T01680139  RH  083%=      5-min Rain = 0
KBY1 231604Z 34009KT 17/14 A2989 RMK A01 T01670139  RH  083%=      5-min Rain = 0
KBY1 231605Z 33011KT 17/14 A2989 RMK A01 T01670138  RH  083%=      5-min Rain = 0
KBY1 231606Z 32011KT 17/14 A2989 RMK A01 T01660137  RH  083%=      5-min Rain = 0
KBY1 231607Z 31010KT 17/14 A2989 RMK A01 T01650137  RH  084%=      5-min Rain = 0
KBY1 231608Z 32012KT 16/14 A2989 RMK A01 T01640136  RH  083%=      5-min Rain = 0
KBY1 231609Z 33010KT 16/14 A2989 RMK A01 T01640136  RH  084%=      5-min Rain = 0
KBY1 231610Z 33011KT 16/14 A2989 RMK A01 T01640137  RH  084%=      5-min Rain = 0
KBY1 231611Z 33008KT 16/14 A2989 RMK A01 T01640137  RH  084%=      5-min Rain = 0
KBY1 231612Z 34005KT 17/14 A2989 RMK A01 T01650138  RH  084%=      5-min Rain = 0
KBY1 231613Z 34010KT 17/14 A299 RMK A01 T01660138  RH  084%=      5-min Rain = 0
KBY1 231614Z 34011KT 17/13 A299 RMK A01 T01660134  RH  082%=      5-min Rain = 0
KBY1 231615Z 34011KT 16/13 A299 RMK A01 T01640134  RH  082%=      5-min Rain = 0
KBY1 231616Z 33011KT 16/13 A2989 RMK A01 T01640134  RH  082%=      5-min Rain = 0
KBY1 231617Z 32010G15KT 16/14 A2989 RMK A01 T01640135  RH  083%=      5-min Rain = 0
KBY1 231618Z 33008KT 17/14 A299 RMK A01 T01660136  RH  082%=      5-min Rain = 0
KBY1 231619Z 33007KT 17/14 A299 RMK A01 T01680138  RH  082%=      5-min Rain = 0
KBY1 231620Z 30011KT 17/14 A299 RMK A01 T01690135  RH  080%=      5-min Rain = 0
KBY1 231621Z 31011KT 17/13 A299 RMK A01 T01680131  RH  079%=      5-min Rain = 0
KBY1 231622Z 31011G16KT 17/13 A299 RMK A01 T01670131  RH  079%=      5-min Rain = 0
KBY1 231623Z 31011G16KT 17/13 A299 RMK A01 T01660130  RH  079%=      5-min Rain = 0
KBY1 231624Z 32012KT 17/13 A299 RMK A01 T01650129  RH  079%=      5-min Rain = 0
KBY1 231625Z 33009KT 17/13 A299 RMK A01 T01650130  RH  080%=      5-min Rain = 0
KBY1 231626Z 34012G17KT 17/13 A2991 RMK A01 T01650130  RH  080%=      5-min Rain = 0
KBY1 231627Z 33014KT 17/13 A2991 RMK A01 T01650127  RH  078%=      5-min Rain = 0
KBY1 231628Z 33016KT 16/12 A2991 RMK A01 T01620124  RH  078%=      5-min Rain = 0
KBY1 231629Z 33014KT 16/12 A2991 RMK A01 T01590122  RH  079%=      5-min Rain = 0
KBY1 231630Z 32011G17KT 16/12 A2991 RMK A01 T01580123  RH  080%=      5-min Rain = 0
KBY1 231631Z 32016KT 16/12 A2991 RMK A01 T01580122  RH  079%=      5-min Rain = 0
KBY1 231632Z 33013KT 16/12 A2991 RMK A01 T01570120  RH  079%=      5-min Rain = 0
KBY1 231633Z 32014KT 16/12 A2991 RMK A01 T01560122  RH  080%=      5-min Rain = 0
KBY1 231634Z 32014KT 16/12 A2992 RMK A01 T01570121  RH  079%=      5-min Rain = 0
KBY1 231635Z 31013G18KT 16/12 A2992 RMK A01 T01560120  RH  079%=      5-min Rain = 0
KBY1 231636Z 32016KT 15/12 A2992 RMK A01 T01540118  RH  079%=      5-min Rain = 0
KBY1 231637Z 32013KT 15/12 A2991 RMK A01 T01510116  RH  080%=      5-min Rain = 0
KBY1 231638Z 32013G18KT 15/12 A2991 RMK A01 T01500117  RH  081%=      5-min Rain = 0
KBY1 231639Z 33012KT 15/12 A2991 RMK A01 T01490116  RH  081%=      5-min Rain = 0
KBY1 231640Z 34008KT 15/12 A2991 RMK A01 T01500118  RH  081%=      5-min Rain = 0
KBY1 231641Z 36010G15KT 15/12 A299 RMK A01 T01510119  RH  081%=      5-min Rain = 0
KBY1 231642Z 00009KT 15/12 A299 RMK A01 T01540121  RH  080%=      5-min Rain = 0
KBY1 231643Z 35009KT 16/12 A299 RMK A01 T01570122  RH  079%=      5-min Rain = 0
KBY1 231644Z 34011G16KT 16/12 A2991 RMK A01 T01610124  RH  079%=      5-min Rain = 0
KBY1 231645Z 34013KT 16/12 A2991 RMK A01 T01610119  RH  076%=      5-min Rain = 0
KBY1 231646Z 34014KT 16/12 A2991 RMK A01 T01580117  RH  076%=      5-min Rain = 0
KBY1 231647Z 33009KT 16/12 A2991 RMK A01 T01570118  RH  078%=      5-min Rain = 0
KBY1 231648Z 33009KT 16/12 A2991 RMK A01 T01570117  RH  077%=      5-min Rain = 0
KBY1 231649Z 33015G21KT 16/11 A2991 RMK A01 T01560114  RH  076%=      5-min Rain = 0
KBY1 231650Z 34016G23KT 15/11 A2991 RMK A01 T01530114  RH  077%=      5-min Rain = 0
KBY1 231651Z 34014G19KT 15/11 A2991 RMK A01 T01500112  RH  078%=      5-min Rain = 0
KBY1 231652Z 34008G13KT 15/11 A2991 RMK A01 T01490113  RH  079%=      5-min Rain = 0
KBY1 231653Z 32011KT 15/11 A2991 RMK A01 T01490113  RH  079%=      5-min Rain = 0
KBY1 231654Z 33014G21KT 15/11 A2991 RMK A01 T01490111  RH  078%=      5-min Rain = 0
KBY1 231655Z 34017KT 15/11 A2991 RMK A01 T01470109  RH  078%=      5-min Rain = 0
KBY1 231656Z 33014KT 15/11 A2992 RMK A01 T01450108  RH  078%=      5-min Rain = 0
KBY1 231657Z 33015KT 14/11 A2992 RMK A01 T01430107  RH  079%=      5-min Rain = 0
KBY1 231658Z 33014KT 14/11 A2992 RMK A01 T01420108  RH  079%=      5-min Rain = 0
KBY1 231659Z 32013G21KT 14/11 A2992 RMK A01 T01420109  RH  080%=      5-min Rain = 0
KBY1 231700Z 33015G20KT 14/11 A2992 RMK A01 T01430108  RH  080%=      5-min Rain = 0
KBY1 231701Z 32015KT 14/11 A2992 RMK A01 T01430108  RH  079%=      5-min Rain = 0
KBY1 231702Z 32015KT 14/11 A2992 RMK A01 T01420107  RH  080%=      5-min Rain = 0
KBY1 231703Z 32014G22KT 14/11 A2992 RMK A01 T01400107  RH  080%=      5-min Rain = 0
KBY1 231704Z 33015G21KT 14/11 A2993 RMK A01 T01380105  RH  080%=      5-min Rain = 0
KBY1 231705Z 33015G21KT 14/10 A2993 RMK A01 T01360104  RH  081%=      5-min Rain = 0
KBY1 231706Z 34015G22KT 13/10 A2993 RMK A01 T01340103  RH  082%=      5-min Rain = 0
KBY1 231707Z 34010KT 13/10 A2993 RMK A01 T01340104  RH  082%=      5-min Rain = 0
KBY1 231708Z 35011G18KT 13/11 A2993 RMK A01 T01340105  RH  082%=      5-min Rain = 0
KBY1 231709Z 34013G20KT 13/10 A2993 RMK A01 T01340104  RH  082%=      5-min Rain = 0
KBY1 231710Z 34010G15KT 13/10 A2993 RMK A01 T01330104  RH  083%=      5-min Rain = 0
KBY1 231711Z 34011G21KT 13/11 A2994 RMK A01 T01330106  RH  083%=      5-min Rain = 0
KBY1 231712Z 35013G18KT 13/11 A2994 RMK A01 T01330106  RH  084%=      5-min Rain = 0
KBY1 231713Z 33015KT 13/11 A2993 RMK A01 T01330106  RH  084%=      5-min Rain = 0
KBY1 231714Z 35012KT 13/11 A2992 RMK A01 T01320107  RH  084%=      5-min Rain = 0
KBY1 231715Z 34012KT 13/11 A2992 RMK A01 T01320108  RH  085%=      5-min Rain = 0
KBY1 231716Z 33014KT 13/11 A2992 RMK A01 T01310109  RH  086%=      5-min Rain = 0
KBY1 231717Z 33013G18KT 13/11 A2992 RMK A01 T01310111  RH  088%=      5-min Rain = 0
KBY1 231718Z 34014G19KT 13/11 A2992 RMK A01 T01300112  RH  089%=      5-min Rain = 0
KBY1 231719Z 33013KT 13/11 A2992 RMK A01 T01300112  RH  089%=      5-min Rain = 0
KBY1 231720Z 33014G19KT 13/11 A2992 RMK A01 T01300114  RH  090%=      5-min Rain = 0
KBY1 231721Z 33012G17KT 13/11 A2993 RMK A01 T01310113  RH  089%=      5-min Rain = 0
KBY1 231722Z 34011KT 13/12 A2993 RMK A01 T01320116  RH  090%=      5-min Rain = 0
KBY1 231723Z 33013KT 13/12 A2993 RMK A01 T01320115  RH  089%=      5-min Rain = 0
KBY1 231724Z 32013KT 13/12 A2994 RMK A01 T01320115  RH  089%=      5-min Rain = 0
KBY1 231725Z 34011KT 13/11 A2993 RMK A01 T01320113  RH  088%=      5-min Rain = 0
KBY1 231726Z 34014G20KT 13/11 A2993 RMK A01 T01320114  RH  089%=      5-min Rain = 0
KBY1 231727Z 34016KT 13/11 A2993 RMK A01 T01320112  RH  088%=      5-min Rain = 0
KBY1 231728Z 34017KT 13/11 A2992 RMK A01 T01310109  RH  086%=      5-min Rain = 0
KBY1 231729Z 34013G18KT 13/11 A2993 RMK A01 T01300108  RH  086%=      5-min Rain = 0
KBY1 231730Z 34012G20KT 13/11 A2993 RMK A01 T01300111  RH  088%=      5-min Rain = 0
KBY1 231731Z 34013G19KT 13/11 A2993 RMK A01 T01300109  RH  087%=      5-min Rain = 0
KBY1 231732Z 33012G18KT 13/11 A2994 RMK A01 T01300109  RH  087%=      5-min Rain = 0
KBY1 231733Z 34012G17KT 13/11 A2993 RMK A01 T01300110  RH  088%=      5-min Rain = 0
KBY1 231734Z 34013KT 13/11 A2993 RMK A01 T01300109  RH  087%=      5-min Rain = 0
KBY1 231735Z 33014G19KT 13/11 A2993 RMK A01 T01300110  RH  087%=      5-min Rain = 0
KBY1 231736Z 34011KT 13/11 A2994 RMK A01 T01310110  RH  087%=      5-min Rain = 0
KBY1 231737Z 35014G19KT 13/11 A2994 RMK A01 T01310108  RH  086%=      5-min Rain = 0
KBY1 231738Z 35014KT 13/11 A2994 RMK A01 T01300106  RH  086%=      5-min Rain = 0
KBY1 231739Z 36013KT 13/11 A2993 RMK A01 T01300108  RH  086%=      5-min Rain = 0
KBY1 231740Z 36011KT 13/11 A2993 RMK A01 T01290107  RH  086%=      5-min Rain = 0
KBY1 231741Z 34011G18KT 13/11 A2993 RMK A01 T01300108  RH  087%=      5-min Rain = 0
KBY1 231742Z 34012KT 13/11 A2993 RMK A01 T01310110  RH  087%=      5-min Rain = 0
KBY1 231743Z 34012KT 13/11 A2993 RMK A01 T01320109  RH  086%=      5-min Rain = 0
KBY1 231744Z 33013G20KT 13/11 A2993 RMK A01 T01330109  RH  086%=      5-min Rain = 0
KBY1 231745Z 35011KT 13/11 A2993 RMK A01 T01340111  RH  086%=      5-min Rain = 0
KBY1 231746Z 35011G16KT 14/11 A2993 RMK A01 T01360112  RH  085%=      5-min Rain = 0
KBY1 231747Z 34012G19KT 14/11 A2994 RMK A01 T01370110  RH  083%=      5-min Rain = 0
KBY1 231748Z 35015KT 14/11 A2994 RMK A01 T01360107  RH  082%=      5-min Rain = 0
KBY1 231749Z 36009KT 14/11 A2994 RMK A01 T01350105  RH  082%=      5-min Rain = 0
KBY1 231750Z 36013KT 13/11 A2994 RMK A01 T01340106  RH  083%=      5-min Rain = 0
KBY1 231751Z 35014G20KT 13/11 A2994 RMK A01 T01330105  RH  083%=      5-min Rain = 0
KBY1 231752Z 35014G20KT 13/11 A2993 RMK A01 T01330105  RH  083%=      5-min Rain = 0
KBY1 231753Z 35017KT 13/11 A2993 RMK A01 T01330105  RH  083%=      5-min Rain = 0
KBY1 231754Z 34014KT 13/11 A2993 RMK A01 T01330105  RH  083%=      5-min Rain = 0
KBY1 231755Z 34016KT 13/10 A2993 RMK A01 T01340104  RH  082%=      5-min Rain = 0
KBY1 231756Z 35015KT 13/10 A2993 RMK A01 T01340103  RH  082%=      5-min Rain = 0
KBY1 231757Z 34015KT 13/10 A2993 RMK A01 T01340104  RH  082%=      5-min Rain = 0
KBY1 231758Z 35013KT 13/10 A2993 RMK A01 T01340104  RH  082%=      5-min Rain = 0
KBY1 231759Z 34014G19KT 13/10 A2993 RMK A01 T01340103  RH  082%=      5-min Rain = 0
KBY1 231800Z 35016G21KT 13/10 A2993 RMK A01 T01330102  RH  081%=      5-min Rain = 0
KBY1 231801Z 34013G20KT 13/10 A2993 RMK A01 T01330103  RH  082%=      5-min Rain = 0
KBY1 231802Z 34013G18KT 13/10 A2993 RMK A01 T01330102  RH  081%=      5-min Rain = 0
KBY1 231803Z 35013G21KT 14/11 A2993 RMK A01 T01350105  RH  082%=      5-min Rain = 0
KBY1 231804Z 35014KT 14/10 A2993 RMK A01 T01360104  RH  081%=      5-min Rain = 0
KBY1 231805Z 00014KT 14/11 A2993 RMK A01 T01370105  RH  081%=      5-min Rain = 0
KBY1 231806Z 35014G19KT 14/11 A2993 RMK A01 T01380105  RH  080%=      5-min Rain = 0
KBY1 231807Z 00015G20KT 14/10 A2993 RMK A01 T01390104  RH  079%=      5-min Rain = 0
KBY1 231808Z 01016G21KT 14/10 A2993 RMK A01 T01380104  RH  080%=      5-min Rain = 0
KBY1 231809Z 00015G21KT 14/10 A2993 RMK A01 T01370102  RH  079%=      5-min Rain = 0
KBY1 231810Z 00017KT 14/10 A2993 RMK A01 T01360102  RH  079%=      5-min Rain = 0
KBY1 231811Z 36014G21KT 14/10 A2993 RMK A01 T01360102  RH  080%=      5-min Rain = 0
KBY1 231812Z 36015KT 14/10 A2993 RMK A01 T01360101  RH  079%=      5-min Rain = 0
KBY1 231813Z 00010KT 14/10 A2993 RMK A01 T01360102  RH  080%=      5-min Rain = 0
KBY1 231814Z 36012G18KT 14/10 A2993 RMK A01 T01360102  RH  080%=      5-min Rain = 0
KBY1 231815Z 00013KT 14/10 A2993 RMK A01 T01370103  RH  080%=      5-min Rain = 0
KBY1 231816Z 00015KT 14/10 A2993 RMK A01 T01380103  RH  079%=      5-min Rain = 0
KBY1 231817Z 00015G20KT 14/10 A2993 RMK A01 T01380102  RH  079%=      5-min Rain = 0
KBY1 231818Z 00014KT 14/10 A2993 RMK A01 T01380102  RH  079%=      5-min Rain = 0
KBY1 231819Z 35014KT 14/10 A2993 RMK A01 T01380102  RH  079%=      5-min Rain = 0
KBY1 231820Z 36016KT 14/10 A2993 RMK A01 T01390103  RH  079%=      5-min Rain = 0
KBY1 231821Z 35015KT 14/10 A2992 RMK A01 T01390102  RH  078%=      5-min Rain = 0
KBY1 231822Z 35013G18KT 14/10 A2992 RMK A01 T01390102  RH  078%=      5-min Rain = 0
KBY1 231823Z 36012G19KT 14/10 A2992 RMK A01 T01400104  RH  079%=      5-min Rain = 0
KBY1 231824Z 35015G20KT 14/10 A2992 RMK A01 T01420104  RH  078%=      5-min Rain = 0
KBY1 231825Z 00014KT 14/11 A2992 RMK A01 T01430105  RH  078%=      5-min Rain = 0
KBY1 231826Z 36015KT 14/10 A2992 RMK A01 T01430104  RH  077%=      5-min Rain = 0
KBY1 231827Z 01014KT 14/10 A2992 RMK A01 T01430103  RH  077%=      5-min Rain = 0
KBY1 231828Z 00014KT 14/11 A2992 RMK A01 T01430105  RH  078%=      5-min Rain = 0
KBY1 231829Z 01014G19KT 14/11 A2992 RMK A01 T01440105  RH  077%=      5-min Rain = 0
KBY1 231830Z 36015G20KT 14/10 A2992 RMK A01 T01440104  RH  077%=      5-min Rain = 0
KBY1 231831Z 01015G20KT 14/10 A2992 RMK A01 T01430103  RH  077%=      5-min Rain = 0
KBY1 231832Z 00016KT 14/10 A2992 RMK A01 T01430102  RH  077%=      5-min Rain = 0
KBY1 231833Z 36012KT 14/10 A2992 RMK A01 T01420104  RH  078%=      5-min Rain = 0
KBY1 231834Z 35013G19KT 14/11 A2992 RMK A01 T01440105  RH  077%=      5-min Rain = 0
KBY1 231835Z 35015G20KT 15/11 A2992 RMK A01 T01450105  RH  077%=      5-min Rain = 0
KBY1 231836Z 36014KT 15/11 A2992 RMK A01 T01450105  RH  077%=      5-min Rain = 0
KBY1 231837Z 35013KT 15/11 A2992 RMK A01 T01460105  RH  077%=      5-min Rain = 0
KBY1 231838Z 35015G20KT 15/10 A2992 RMK A01 T01460104  RH  076%=      5-min Rain = 0
KBY1 231839Z 35013KT 15/10 A2992 RMK A01 T01450104  RH  077%=      5-min Rain = 0
KBY1 231840Z 35013KT 15/11 A2992 RMK A01 T01460107  RH  077%=      5-min Rain = 0
KBY1 231841Z 36014G19KT 15/11 A2992 RMK A01 T01480107  RH  076%=      5-min Rain = 0
KBY1 231842Z 01015KT 15/11 A2992 RMK A01 T01480105  RH  075%=      5-min Rain = 0
KBY1 231843Z 01014KT 15/11 A2992 RMK A01 T01470106  RH  076%=      5-min Rain = 0
KBY1 231844Z 36013KT 15/11 A2992 RMK A01 T01470106  RH  076%=      5-min Rain = 0
KBY1 231845Z 00015G20KT 15/11 A2992 RMK A01 T01480107  RH  076%=      5-min Rain = 0
KBY1 231846Z 35013KT 15/11 A2992 RMK A01 T01470106  RH  076%=      5-min Rain = 0
KBY1 231847Z 35014KT 15/11 A2992 RMK A01 T01480107  RH  077%=      5-min Rain = 0
KBY1 231848Z 35013KT 15/11 A2992 RMK A01 T01480107  RH  076%=      5-min Rain = 0
KBY1 231849Z 35010KT 15/11 A2992 RMK A01 T01480106  RH  076%=      5-min Rain = 0
KBY1 231850Z 35012KT 15/11 A2991 RMK A01 T01480107  RH  077%=      5-min Rain = 0
KBY1 231851Z 34011G17KT 15/11 A2991 RMK A01 T01490108  RH  076%=      5-min Rain = 0
KBY1 231852Z 34013G19KT 15/11 A2991 RMK A01 T01500108  RH  076%=      5-min Rain = 0
KBY1 231853Z 36015KT 15/11 A2992 RMK A01 T01500107  RH  076%=      5-min Rain = 0
KBY1 231854Z 36013KT 15/11 A2992 RMK A01 T01490108  RH  076%=      5-min Rain = 0
KBY1 231855Z 36013KT 15/11 A2992 RMK A01 T01490108  RH  076%=      5-min Rain = 0
KBY1 231856Z 34013KT 15/11 A2991 RMK A01 T01500109  RH  077%=      5-min Rain = 0
KBY1 231857Z 34016KT 15/11 A2991 RMK A01 T01510108  RH  075%=      5-min Rain = 0
KBY1 231858Z 35014KT 15/11 A2991 RMK A01 T01510107  RH  075%=      5-min Rain = 0
KBY1 231859Z 34012G17KT 15/11 A2991 RMK A01 T01510109  RH  076%=      5-min Rain = 0
KBY1 231900Z 36010G15KT 15/11 A2991 RMK A01 T01520110  RH  076%=      5-min Rain = 0
KBY1 231901Z 34014KT 15/11 A2991 RMK A01 T01540110  RH  075%=      5-min Rain = 0
KBY1 231902Z 35013KT 15/11 A2991 RMK A01 T01540109  RH  074%=      5-min Rain = 0
KBY1 231903Z 35013KT 15/11 A2991 RMK A01 T01530108  RH  074%=      5-min Rain = 0
KBY1 231904Z 35014KT 15/11 A2991 RMK A01 T01520109  RH  075%=      5-min Rain = 0
KBY1 231905Z 35011KT 15/11 A2991 RMK A01 T01530109  RH  075%=      5-min Rain = 0
KBY1 231906Z 35011KT 15/11 A2991 RMK A01 T01530110  RH  075%=      5-min Rain = 0
KBY1 231907Z 35011G16KT 16/11 A2991 RMK A01 T01550111  RH  075%=      5-min Rain = 0
KBY1 231908Z 35015KT 16/11 A2991 RMK A01 T01570111  RH  074%=      5-min Rain = 0
KBY1 231909Z 34014KT 16/11 A2991 RMK A01 T01560109  RH  074%=      5-min Rain = 0
KBY1 231910Z 35012G17KT 15/11 A2991 RMK A01 T01540109  RH  074%=      5-min Rain = 0
KBY1 231911Z 34014G19KT 16/11 A2991 RMK A01 T01550110  RH  074%=      5-min Rain = 0
KBY1 231912Z 35013KT 16/11 A2991 RMK A01 T01560109  RH  074%=      5-min Rain = 0
KBY1 231913Z 35014KT 16/11 A2991 RMK A01 T01560109  RH  074%=      5-min Rain = 0
KBY1 231914Z 35012G17KT 16/11 A2991 RMK A01 T01560109  RH  074%=      5-min Rain = 0
KBY1 231915Z 35013KT 16/11 A2991 RMK A01 T01560110  RH  074%=      5-min Rain = 0
KBY1 231916Z 35015KT 16/11 A2991 RMK A01 T01560110  RH  074%=      5-min Rain = 0
KBY1 231917Z 35014KT 16/11 A2991 RMK A01 T01560110  RH  074%=      5-min Rain = 0
KBY1 231918Z 36012KT 16/11 A2991 RMK A01 T01550109  RH  074%=      5-min Rain = 0
KBY1 231919Z 34013KT 16/11 A2991 RMK A01 T01550109  RH  074%=      5-min Rain = 0
KBY1 231920Z 36012KT 15/11 A2991 RMK A01 T01540107  RH  074%=      5-min Rain = 0
KBY1 231921Z 34009KT 15/11 A2991 RMK A01 T01530109  RH  075%=      5-min Rain = 0
KBY1 231922Z 35011KT 16/11 A2991 RMK A01 T01550110  RH  075%=      5-min Rain = 0
KBY1 231923Z 34013KT 16/11 A2991 RMK A01 T01550108  RH  074%=      5-min Rain = 0
KBY1 231924Z 35012KT 15/11 A2991 RMK A01 T01540107  RH  073%=      5-min Rain = 0
KBY1 231925Z 35013KT 15/11 A2991 RMK A01 T01530109  RH  075%=      5-min Rain = 0
KBY1 231926Z 35014KT 15/11 A2991 RMK A01 T01540109  RH  075%=      5-min Rain = 0
KBY1 231927Z 35008KT 15/11 A2991 RMK A01 T01540110  RH  075%=      5-min Rain = 0
KBY1 231928Z 35008KT 16/11 A2991 RMK A01 T01570113  RH  075%=      5-min Rain = 0
KBY1 231929Z 00013KT 16/11 A2991 RMK A01 T01580111  RH  073%=      5-min Rain = 0
KBY1 231930Z 00014KT 16/11 A2991 RMK A01 T01570109  RH  073%=      5-min Rain = 0
KBY1 231931Z 36013KT 16/11 A2991 RMK A01 T01550110  RH  074%=      5-min Rain = 0
KBY1 231932Z 35009KT 16/11 A2991 RMK A01 T01550110  RH  074%=      5-min Rain = 0
KBY1 231933Z 00012G18KT 16/11 A2991 RMK A01 T01560110  RH  074%=      5-min Rain = 0
KBY1 231934Z 35012KT 16/11 A2991 RMK A01 T01560109  RH  074%=      5-min Rain = 0
KBY1 231935Z 34012KT 16/11 A2991 RMK A01 T01560108  RH  073%=      5-min Rain = 0
KBY1 231936Z 34010KT 16/11 A2991 RMK A01 T01550108  RH  074%=      5-min Rain = 0
KBY1 231937Z 34012G18KT 16/11 A2991 RMK A01 T01550110  RH  074%=      5-min Rain = 0
KBY1 231938Z 35014KT 16/11 A2991 RMK A01 T01560110  RH  074%=      5-min Rain = 0
KBY1 231939Z 35012G17KT 16/11 A2991 RMK A01 T01570111  RH  074%=      5-min Rain = 0
KBY1 231940Z 35013KT 16/11 A2991 RMK A01 T01570110  RH  073%=      5-min Rain = 0
KBY1 231941Z 35013KT 16/11 A2991 RMK A01 T01570109  RH  073%=      5-min Rain = 0
KBY1 231942Z 00010KT 16/11 A2991 RMK A01 T01560111  RH  074%=      5-min Rain = 0
KBY1 231943Z 36011KT 16/11 A2991 RMK A01 T01570112  RH  074%=      5-min Rain = 0
KBY1 231944Z 35013KT 16/11 A2991 RMK A01 T01580112  RH  074%=      5-min Rain = 0
KBY1 231945Z 35012KT 16/11 A2991 RMK A01 T01580110  RH  073%=      5-min Rain = 0
KBY1 231946Z 00011KT 16/11 A2991 RMK A01 T01570112  RH  074%=      5-min Rain = 0
KBY1 231947Z 00011KT 16/11 A2991 RMK A01 T01570112  RH  074%=      5-min Rain = 0
KBY1 231948Z 36012KT 16/11 A2991 RMK A01 T01570111  RH  074%=      5-min Rain = 0
KBY1 231949Z 36014KT 16/11 A2991 RMK A01 T01570111  RH  074%=      5-min Rain = 0
KBY1 231950Z 01012KT 16/11 A2991 RMK A01 T01560111  RH  074%=      5-min Rain = 0
KBY1 231951Z 35010KT 16/11 A2991 RMK A01 T01570113  RH  075%=      5-min Rain = 0
KBY1 231952Z 35010KT 16/11 A2991 RMK A01 T01590113  RH  074%=      5-min Rain = 0
KBY1 231953Z 34009KT 16/11 A2991 RMK A01 T01600113  RH  074%=      5-min Rain = 0
KBY1 231954Z 35009KT 16/11 A2991 RMK A01 T01600114  RH  074%=      5-min Rain = 0
KBY1 231955Z 36011KT 16/11 A2991 RMK A01 T01610114  RH  074%=      5-min Rain = 0
KBY1 231956Z 00014KT 16/11 A2991 RMK A01 T01600112  RH  073%=      5-min Rain = 0
KBY1 231957Z 35013KT 16/11 A2991 RMK A01 T01570110  RH  073%=      5-min Rain = 0
KBY1 231958Z 35013KT 16/11 A2991 RMK A01 T01560111  RH  074%=      5-min Rain = 0
KBY1 231959Z 36013KT 16/11 A2991 RMK A01 T01560111  RH  075%=      5-min Rain = 0
KBY1 232000Z 00008KT 16/11 A2991 RMK A01 T01560112  RH  075%=      5-min Rain = 0
KBY1 232001Z 00010KT 16/11 A2991 RMK A01 T01570112  RH  075%=      5-min Rain = 0
KBY1 232002Z 00008KT 16/11 A2991 RMK A01 T01570113  RH  075%=      5-min Rain = 0
KBY1 232003Z 01012KT 16/11 A2991 RMK A01 T01580113  RH  074%=      5-min Rain = 0
KBY1 232004Z 01008KT 16/11 A2991 RMK A01 T01570112  RH  074%=      5-min Rain = 0
KBY1 232005Z 36009KT 16/11 A2992 RMK A01 T01570113  RH  075%=      5-min Rain = 0
KBY1 232006Z 36012KT 16/11 A2992 RMK A01 T01570112  RH  074%=      5-min Rain = 0
KBY1 232007Z 35012KT 16/11 A2991 RMK A01 T01550109  RH  074%=      5-min Rain = 0
KBY1 232008Z 35012KT 15/11 A2991 RMK A01 T01540110  RH  075%=      5-min Rain = 0
KBY1 232009Z 35012KT 15/11 A2991 RMK A01 T01530109  RH  075%=      5-min Rain = 0
KBY1 232010Z 00013KT 15/11 A2991 RMK A01 T01520110  RH  075%=      5-min Rain = 0
KBY1 232011Z 00013KT 15/11 A2991 RMK A01 T01520110  RH  076%=      5-min Rain = 0
KBY1 232012Z 00012KT 15/11 A2991 RMK A01 T01520109  RH  076%=      5-min Rain = 0
KBY1 232013Z 35011KT 15/11 A2991 RMK A01 T01520110  RH  076%=      5-min Rain = 0
KBY1 232014Z 35010G15KT 15/11 A2991 RMK A01 T01520110  RH  076%=      5-min Rain = 0
KBY1 232015Z 35014KT 15/11 A2991 RMK A01 T01520108  RH  075%=      5-min Rain = 0
KBY1 232016Z 36011KT 15/11 A2991 RMK A01 T01520110  RH  076%=      5-min Rain = 0
KBY1 232017Z 00009KT 15/11 A2991 RMK A01 T01520111  RH  076%=      5-min Rain = 0
KBY1 232018Z 00013KT 15/11 A2991 RMK A01 T01540111  RH  076%=      5-min Rain = 0
KBY1 232019Z 36014KT 15/11 A2991 RMK A01 T01540109  RH  075%=      5-min Rain = 0
KBY1 232020Z 35009G14KT 15/11 A2991 RMK A01 T01520109  RH  076%=      5-min Rain = 0
KBY1 232021Z 00011KT 15/11 A2992 RMK A01 T01510110  RH  076%=      5-min Rain = 0
KBY1 232022Z 00011KT 15/11 A2992 RMK A01 T01510110  RH  076%=      5-min Rain = 0
KBY1 232023Z 00010G15KT 15/11 A2992 RMK A01 T01510109  RH  076%=      5-min Rain = 0
KBY1 232024Z 34011KT 15/11 A2992 RMK A01 T01510111  RH  077%=      5-min Rain = 0
KBY1 232025Z 35010KT 15/11 A2992 RMK A01 T01510109  RH  076%=      5-min Rain = 0
KBY1 232026Z 34010KT 15/11 A2991 RMK A01 T01510110  RH  076%=      5-min Rain = 0
KBY1 232027Z 34010KT 15/11 A2991 RMK A01 T01510109  RH  076%=      5-min Rain = 0
KBY1 232028Z 34013KT 15/11 A2991 RMK A01 T01510108  RH  076%=      5-min Rain = 0
KBY1 232029Z 34013KT 15/11 A2991 RMK A01 T01500108  RH  076%=      5-min Rain = 0
KBY1 232030Z 35014KT 15/11 A2991 RMK A01 T01490107  RH  076%=      5-min Rain = 0
KBY1 232031Z 36008KT 15/11 A2991 RMK A01 T01480108  RH  077%=      5-min Rain = 0
KBY1 232032Z 36008KT 15/11 A2991 RMK A01 T01490109  RH  077%=      5-min Rain = 0
KBY1 232033Z 35012KT 15/11 A2992 RMK A01 T01500109  RH  076%=      5-min Rain = 0
KBY1 232034Z 35010KT 15/11 A2992 RMK A01 T01490108  RH  076%=      5-min Rain = 0
KBY1 232035Z 35009KT 15/11 A2992 RMK A01 T01490109  RH  077%=      5-min Rain = 0
KBY1 232036Z 34010KT 15/11 A2991 RMK A01 T01490108  RH  077%=      5-min Rain = 0
KBY1 232037Z 34012KT 15/11 A2991 RMK A01 T01490108  RH  076%=      5-min Rain = 0
KBY1 232038Z 35012KT 15/11 A2991 RMK A01 T01490107  RH  076%=      5-min Rain = 0
KBY1 232039Z 35012KT 15/11 A2991 RMK A01 T01480106  RH  076%=      5-min Rain = 0
KBY1 232040Z 35011KT 15/11 A2992 RMK A01 T01460106  RH  077%=      5-min Rain = 0
KBY1 232041Z 34010KT 15/11 A2992 RMK A01 T01460106  RH  077%=      5-min Rain = 0
KBY1 232042Z 34011KT 15/11 A2992 RMK A01 T01460106  RH  077%=      5-min Rain = 0
KBY1 232043Z 34012KT 15/11 A2991 RMK A01 T01460105  RH  076%=      5-min Rain = 0
KBY1 232044Z 34009KT 15/11 A2991 RMK A01 T01460105  RH  077%=      5-min Rain = 0
KBY1 232045Z 34009KT 15/11 A2991 RMK A01 T01460106  RH  077%=      5-min Rain = 0
KBY1 232046Z 34011KT 15/11 A2991 RMK A01 T01470105  RH  076%=      5-min Rain = 0
KBY1 232047Z 34011KT 15/11 A2991 RMK A01 T01460105  RH  076%=      5-min Rain = 0
KBY1 232048Z 35008KT 15/11 A2991 RMK A01 T01450105  RH  077%=      5-min Rain = 0
KBY1 232049Z 36012KT 15/11 A2991 RMK A01 T01460106  RH  077%=      5-min Rain = 0
KBY1 232050Z 34011KT 15/11 A2991 RMK A01 T01460105  RH  077%=      5-min Rain = 0
KBY1 232051Z 36007KT 15/11 A2991 RMK A01 T01450106  RH  077%=      5-min Rain = 0
KBY1 232052Z 00011KT 15/11 A2991 RMK A01 T01460107  RH  077%=      5-min Rain = 0
KBY1 232053Z 36011G17KT 15/11 A2991 RMK A01 T01450105  RH  077%=      5-min Rain = 0
KBY1 232054Z 35008KT 14/11 A2991 RMK A01 T01440106  RH  078%=      5-min Rain = 0
KBY1 232055Z 00010KT 15/11 A2991 RMK A01 T01450107  RH  078%=      5-min Rain = 0
KBY1 232056Z 36010KT 15/11 A2991 RMK A01 T01460106  RH  077%=      5-min Rain = 0
KBY1 232057Z 34008KT 15/11 A2991 RMK A01 T01460107  RH  077%=      5-min Rain = 0
KBY1 232058Z 00013G19KT 15/11 A299 RMK A01 T01460106  RH  077%=      5-min Rain = 0
KBY1 232059Z 00014KT 15/10 A299 RMK A01 T01450104  RH  076%=      5-min Rain = 0
KBY1 232100Z 00015KT 14/10 A299 RMK A01 T01430104  RH  077%=      5-min Rain = 0
KBY1 232101Z 01011KT 14/11 A299 RMK A01 T01430105  RH  078%=      5-min Rain = 0
KBY1 232102Z 01011KT 14/10 A299 RMK A01 T01430104  RH  078%=      5-min Rain = 0
KBY1 232103Z 00012KT 14/10 A299 RMK A01 T01430104  RH  078%=      5-min Rain = 0
KBY1 232104Z 35008KT 14/11 A299 RMK A01 T01430105  RH  078%=      5-min Rain = 0
KBY1 232105Z 35007KT 15/11 A299 RMK A01 T01450106  RH  078%=      5-min Rain = 0
KBY1 232106Z 36010KT 15/11 A299 RMK A01 T01460107  RH  077%=      5-min Rain = 0
KBY1 232107Z 36009KT 15/11 A299 RMK A01 T01480108  RH  077%=      5-min Rain = 0
KBY1 232108Z 35008KT 15/11 A299 RMK A01 T01480108  RH  077%=      5-min Rain = 0
KBY1 232109Z 35009KT 15/11 A299 RMK A01 T01480109  RH  077%=      5-min Rain = 0
KBY1 232110Z 36010KT 15/11 A299 RMK A01 T01490107  RH  076%=      5-min Rain = 0
KBY1 232111Z 36010KT 15/11 A299 RMK A01 T01460105  RH  076%=      5-min Rain = 0
KBY1 232112Z 34009G15KT 14/11 A299 RMK A01 T01440105  RH  077%=      5-min Rain = 0
KBY1 232113Z 35012G17KT 14/10 A299 RMK A01 T01430104  RH  077%=      5-min Rain = 0
KBY1 232114Z 01013KT 14/10 A299 RMK A01 T01420104  RH  078%=      5-min Rain = 0
KBY1 232115Z 01013KT 14/10 A299 RMK A01 T01410104  RH  079%=      5-min Rain = 0
KBY1 232116Z 01010KT 14/10 A299 RMK A01 T01400104  RH  079%=      5-min Rain = 0
KBY1 232117Z 00011KT 14/10 A299 RMK A01 T01400104  RH  079%=      5-min Rain = 0
KBY1 232118Z 35009KT 14/11 A299 RMK A01 T01400105  RH  079%=      5-min Rain = 0
KBY1 232119Z 35010KT 14/10 A299 RMK A01 T01400104  RH  079%=      5-min Rain = 0
KBY1 232120Z 36011KT 14/10 A299 RMK A01 T01390104  RH  079%=      5-min Rain = 0
KBY1 232121Z 35008KT 14/10 A299 RMK A01 T01390104  RH  080%=      5-min Rain = 0
KBY1 232122Z 35008KT 14/11 A299 RMK A01 T01390105  RH  080%=      5-min Rain = 0
KBY1 232123Z 35010KT 14/11 A299 RMK A01 T01390105  RH  080%=      5-min Rain = 0
KBY1 232124Z 36010G16KT 14/10 A2989 RMK A01 T01390104  RH  080%=      5-min Rain = 0
KBY1 232125Z 35011KT 14/10 A2989 RMK A01 T01380104  RH  080%=      5-min Rain = 0
KBY1 232126Z 00009KT 14/10 A2989 RMK A01 T01380103  RH  080%=      5-min Rain = 0
KBY1 232127Z 35008KT 14/10 A2989 RMK A01 T01370103  RH  080%=      5-min Rain = 0
KBY1 232128Z 35010KT 14/10 A2989 RMK A01 T01370104  RH  080%=      5-min Rain = 0
KBY1 232129Z 35011KT 14/10 A2989 RMK A01 T01370104  RH  081%=      5-min Rain = 0
KBY1 232130Z 35009G14KT 14/10 A2989 RMK A01 T01370104  RH  081%=      5-min Rain = 0
KBY1 232131Z 36009KT 14/10 A2989 RMK A01 T01370104  RH  081%=      5-min Rain = 0
KBY1 232132Z 36009KT 14/10 A2989 RMK A01 T01370104  RH  081%=      5-min Rain = 0
KBY1 232133Z 35009KT 14/10 A299 RMK A01 T01360104  RH  081%=      5-min Rain = 0
KBY1 232134Z 36011KT 14/10 A2989 RMK A01 T01360104  RH  081%=      5-min Rain = 0
KBY1 232135Z 35009KT 14/10 A2989 RMK A01 T01360104  RH  081%=      5-min Rain = 0
KBY1 232136Z 00011KT 14/10 A2988 RMK A01 T01360104  RH  081%=      5-min Rain = 0
KBY1 232137Z 00012KT 14/10 A2988 RMK A01 T01350103  RH  081%=      5-min Rain = 0
KBY1 232138Z 35013KT 13/10 A2987 RMK A01 T01340103  RH  082%=      5-min Rain = 0
KBY1 232139Z 35011KT 13/11 A2988 RMK A01 T01340106  RH  083%=      5-min Rain = 0
KBY1 232140Z 34012KT 13/11 A2989 RMK A01 T01340108  RH  084%=      5-min Rain = 0
KBY1 232141Z 33011KT 13/11 A2989 RMK A01 T01340108  RH  085%=      5-min Rain = 0
KBY1 232142Z 33012KT 13/11 A299 RMK A01 T01330109  RH  086%=      5-min Rain = 0
KBY1 232143Z 34009KT 13/11 A299 RMK A01 T01320110  RH  087%=      5-min Rain = 0
KBY1 232144Z 34009KT 13/11 A299 RMK A01 T01310111  RH  088%=      5-min Rain = 0.01
KBY1 232145Z 35008KT 13/11 A299 RMK A01 T01300111  RH  088%=      5-min Rain = 0
KBY1 232146Z 36009G14KT 13/11 A2989 RMK A01 T01300112  RH  089%=      5-min Rain = 0
KBY1 232147Z 35010G16KT 13/11 A2989 RMK A01 T01300113  RH  089%=      5-min Rain = 0
KBY1 232148Z 34010KT 13/11 A299 RMK A01 T01300113  RH  090%=      5-min Rain = 0.01
KBY1 232149Z 34009KT 13/11 A299 RMK A01 T01300114  RH  090%=      5-min Rain = 0
KBY1 232150Z 35007KT 13/11 A299 RMK A01 T01300114  RH  090%=      5-min Rain = 0
KBY1 232151Z 01006KT 13/12 A2989 RMK A01 T01300115  RH  091%=      5-min Rain = 0
KBY1 232152Z 00007KT 13/12 A299 RMK A01 T01300117  RH  092%=      5-min Rain = 0
KBY1 232153Z 35004KT 13/12 A299 RMK A01 T01300117  RH  092%=      5-min Rain = 0
KBY1 232154Z 35003KT 13/12 A299 RMK A01 T01310118  RH  092%=      5-min Rain = 0
KBY1 232155Z 36007KT 13/12 A299 RMK A01 T01310116  RH  091%=      5-min Rain = 0
KBY1 232156Z 35007KT 13/11 A299 RMK A01 T01300112  RH  089%=      5-min Rain = 0
KBY1 232157Z 35009KT 13/11 A299 RMK A01 T01290111  RH  089%=      5-min Rain = 0
KBY1 232158Z 35010KT 13/11 A2989 RMK A01 T01280110  RH  089%=      5-min Rain = 0
KBY1 232159Z 34007KT 13/11 A2989 RMK A01 T01280111  RH  089%=      5-min Rain = 0
KBY1 232200Z 34008KT 13/11 A299 RMK A01 T01270111  RH  090%=      5-min Rain = 0
KBY1 232201Z 35005KT 13/11 A299 RMK A01 T01270111  RH  090%=      5-min Rain = 0
KBY1 232202Z 01006KT 13/11 A299 RMK A01 T01270112  RH  091%=      5-min Rain = 0
KBY1 232203Z 00007KT 13/11 A299 RMK A01 T01270110  RH  090%=      5-min Rain = 0
KBY1 232204Z 35008KT 13/11 A2989 RMK A01 T01260109  RH  089%=      5-min Rain = 0
KBY1 232205Z 00008KT 13/11 A2989 RMK A01 T01260110  RH  090%=      5-min Rain = 0
KBY1 232206Z 35007KT 13/11 A2989 RMK A01 T01250110  RH  090%=      5-min Rain = 0
KBY1 232207Z 35008KT 13/11 A2989 RMK A01 T01260111  RH  091%=      5-min Rain = 0
KBY1 232208Z 36009KT 13/11 A2988 RMK A01 T01260111  RH  091%=      5-min Rain = 0
KBY1 232209Z 01009KT 13/11 A2988 RMK A01 T01250111  RH  091%=      5-min Rain = 0
KBY1 232210Z 01012KT 13/11 A2988 RMK A01 T01250111  RH  091%=      5-min Rain = 0
KBY1 232211Z 00014KT 13/11 A2988 RMK A01 T01250109  RH  090%=      5-min Rain = 0
KBY1 232212Z 01010KT 13/11 A2988 RMK A01 T01250108  RH  089%=      5-min Rain = 0
KBY1 232213Z 01007KT 13/11 A2988 RMK A01 T01250109  RH  090%=      5-min Rain = 0
KBY1 232214Z 01008KT 12/11 A2988 RMK A01 T01240110  RH  091%=      5-min Rain = 0
KBY1 232215Z 36012KT 13/11 A2988 RMK A01 T01250111  RH  091%=      5-min Rain = 0
KBY1 232216Z 36008KT 13/11 A2988 RMK A01 T01250110  RH  091%=      5-min Rain = 0
KBY1 232217Z 00010KT 13/11 A2988 RMK A01 T01250111  RH  091%=      5-min Rain = 0
KBY1 232218Z 00011KT 13/11 A2988 RMK A01 T01250110  RH  091%=      5-min Rain = 0
KBY1 232219Z 01009KT 13/11 A2988 RMK A01 T01250109  RH  090%=      5-min Rain = 0
KBY1 232220Z 01007KT 13/11 A2988 RMK A01 T01250112  RH  091%=      5-min Rain = 0
KBY1 232221Z 35008KT 13/11 A2988 RMK A01 T01250113  RH  092%=      5-min Rain = 0
KBY1 232222Z 00006KT 13/11 A2988 RMK A01 T01260113  RH  092%=      5-min Rain = 0
KBY1 232223Z 36007KT 13/11 A2988 RMK A01 T01260113  RH  092%=      5-min Rain = 0
KBY1 232224Z 01007G12KT 13/11 A2988 RMK A01 T01260113  RH  092%=      5-min Rain = 0
KBY1 232225Z 36010KT 13/11 A2988 RMK A01 T01270112  RH  091%=      5-min Rain = 0
KBY1 232226Z 01010KT 13/11 A2987 RMK A01 T01270113  RH  091%=      5-min Rain = 0
KBY1 232227Z 01009KT 13/12 A2987 RMK A01 T01280116  RH  092%=      5-min Rain = 0
KBY1 232228Z 01011KT 13/12 A2987 RMK A01 T01300117  RH  092%=      5-min Rain = 0
KBY1 232229Z 01011KT 13/12 A2987 RMK A01 T01310116  RH  091%=      5-min Rain = 0
KBY1 232230Z 00011KT 13/11 A2987 RMK A01 T01300113  RH  089%=      5-min Rain = 0
KBY1 232231Z 01009KT 13/11 A2987 RMK A01 T01290114  RH  090%=      5-min Rain = 0
KBY1 232232Z 00010G15KT 13/12 A2987 RMK A01 T01290115  RH  091%=      5-min Rain = 0
KBY1 232233Z 35011KT 13/11 A2988 RMK A01 T01290113  RH  090%=      5-min Rain = 0
KBY1 232234Z 35012KT 13/11 A2988 RMK A01 T01280112  RH  090%=      5-min Rain = 0.01
KBY1 232235Z 35012KT 13/11 A2987 RMK A01 T01260111  RH  090%=      5-min Rain = 0
KBY1 232236Z 35011KT 13/11 A2987 RMK A01 T01250110  RH  090%=      5-min Rain = 0
KBY1 232237Z 35012KT 12/11 A2986 RMK A01 T01240110  RH  091%=      5-min Rain = 0.02
KBY1 232238Z 00010KT 12/11 A2986 RMK A01 T01240111  RH  092%=      5-min Rain = 0.01
KBY1 232239Z 36012KT 12/11 A2986 RMK A01 T01230112  RH  093%=      5-min Rain = 0.02
KBY1 232240Z 02013KT 12/11 A2985 RMK A01 T01230113  RH  094%=      5-min Rain = 0.05
KBY1 232241Z 02010KT 12/11 A2985 RMK A01 T01220113  RH  094%=      5-min Rain = 0.01
KBY1 232242Z 01009KT 12/11 A2986 RMK A01 T01220114  RH  095%=      5-min Rain = 0.01
KBY1 232243Z 01009KT 12/11 A2986 RMK A01 T01210114  RH  095%=      5-min Rain = 0
KBY1 232244Z 01010KT 12/11 A2986 RMK A01 T01210114  RH  095%=      5-min Rain = 0
KBY1 232245Z 01010KT 12/12 A2985 RMK A01 T01220115  RH  096%=      5-min Rain = 0
KBY1 232246Z 01010KT 12/12 A2985 RMK A01 T01220115  RH  095%=      5-min Rain = 0
KBY1 232247Z 01012G18KT 12/11 A2985 RMK A01 T01220114  RH  095%=      5-min Rain = 0
KBY1 232248Z 01011KT 12/11 A2984 RMK A01 T01220114  RH  094%=      5-min Rain = 0
KBY1 232249Z 02010KT 12/12 A2984 RMK A01 T01230115  RH  095%=      5-min Rain = 0
KBY1 232250Z 02010KT 12/12 A2984 RMK A01 T01240117  RH  095%=      5-min Rain = 0
KBY1 232251Z 02010KT 13/12 A2984 RMK A01 T01250118  RH  095%=      5-min Rain = 0
KBY1 232252Z 02007KT 13/12 A2985 RMK A01 T01260117  RH  095%=      5-min Rain = 0
KBY1 232253Z 02006KT 13/12 A2985 RMK A01 T01260118  RH  095%=      5-min Rain = 0
KBY1 232254Z 03007KT 13/12 A2985 RMK A01 T01270120  RH  096%=      5-min Rain = 0
KBY1 232255Z 04008KT 13/12 A2986 RMK A01 T01270120  RH  095%=      5-min Rain = 0
KBY1 232256Z 04008KT 13/12 A2986 RMK A01 T01280120  RH  095%=      5-min Rain = 0
KBY1 232257Z 03007KT 13/12 A2986 RMK A01 T01280119  RH  095%=      5-min Rain = 0
KBY1 232258Z 04006KT 13/12 A2987 RMK A01 T01280120  RH  095%=      5-min Rain = 0
KBY1 232259Z 03007KT 13/12 A2987 RMK A01 T01280119  RH  095%=      5-min Rain = 0
KBY1 232300Z 02009KT 13/12 A2987 RMK A01 T01270117  RH  094%=      5-min Rain = 0
KBY1 232301Z 03009KT 13/12 A2987 RMK A01 T01270115  RH  093%=      5-min Rain = 0
KBY1 232302Z 03009KT 13/12 A2986 RMK A01 T01260115  RH  093%=      5-min Rain = 0
KBY1 232303Z 02007KT 13/12 A2986 RMK A01 T01260116  RH  093%=      5-min Rain = 0
KBY1 232304Z 01009KT 13/12 A2987 RMK A01 T01260115  RH  093%=      5-min Rain = 0
KBY1 232305Z 02009KT 13/12 A2987 RMK A01 T01260115  RH  093%=      5-min Rain = 0
KBY1 232306Z 03008KT 13/12 A2987 RMK A01 T01260115  RH  093%=      5-min Rain = 0
KBY1 232307Z 04010KT 13/12 A2987 RMK A01 T01260116  RH  094%=      5-min Rain = 0
KBY1 232308Z 04009KT 13/12 A2988 RMK A01 T01260116  RH  094%=      5-min Rain = 0
KBY1 232309Z 05010KT 13/12 A2988 RMK A01 T01250115  RH  093%=      5-min Rain = 0
KBY1 232310Z 04010KT 13/11 A2988 RMK A01 T01250114  RH  093%=      5-min Rain = 0
KBY1 232311Z 05007KT 13/11 A2988 RMK A01 T01250114  RH  093%=      5-min Rain = 0
KBY1 232312Z 05007KT 13/12 A2987 RMK A01 T01250116  RH  094%=      5-min Rain = 0
KBY1 232313Z 05007KT 13/12 A2987 RMK A01 T01250116  RH  094%=      5-min Rain = 0
KBY1 232314Z 06007KT 13/12 A2987 RMK A01 T01250115  RH  094%=      5-min Rain = 0
KBY1 232315Z 06005KT 13/12 A2987 RMK A01 T01250115  RH  094%=      5-min Rain = 0
KBY1 232316Z 06003KT 13/12 A2987 RMK A01 T01250116  RH  094%=      5-min Rain = 0
KBY1 232317Z 05001KT 12/12 A2987 RMK A01 T01240115  RH  094%=      5-min Rain = 0
KBY1 232318Z 04002KT 12/12 A2987 RMK A01 T01240115  RH  094%=      5-min Rain = 0
KBY1 232319Z 04004KT 12/11 A2987 RMK A01 T01240114  RH  094%=      5-min Rain = 0
KBY1 232320Z 07007KT 13/12 A2988 RMK A01 T01250116  RH  094%=      5-min Rain = 0
KBY1 232321Z 07008KT 13/11 A2988 RMK A01 T01250113  RH  092%=      5-min Rain = 0
KBY1 232322Z 08007KT 12/11 A2988 RMK A01 T01240113  RH  093%=      5-min Rain = 0
KBY1 232323Z 09006KT 12/11 A2988 RMK A01 T01240113  RH  093%=      5-min Rain = 0.01
KBY1 232324Z 07010KT 12/11 A2988 RMK A01 T01240112  RH  093%=      5-min Rain = 0
KBY1 232325Z 06006KT 12/11 A2988 RMK A01 T01240112  RH  092%=      5-min Rain = 0
KBY1 232326Z 04007KT 12/11 A2988 RMK A01 T01240112  RH  093%=      5-min Rain = 0
KBY1 232327Z 05007KT 12/11 A2987 RMK A01 T01240112  RH  092%=      5-min Rain = 0
KBY1 232328Z 05006KT 13/11 A2987 RMK A01 T01250113  RH  093%=      5-min Rain = 0
KBY1 232329Z 05008KT 13/12 A2987 RMK A01 T01260116  RH  094%=      5-min Rain = 0
KBY1 232330Z 05008KT 13/12 A2988 RMK A01 T01260115  RH  093%=      5-min Rain = 0
KBY1 232331Z 06007KT 13/12 A2988 RMK A01 T01260115  RH  093%=      5-min Rain = 0
KBY1 232332Z 06006KT 13/11 A2988 RMK A01 T01260114  RH  093%=      5-min Rain = 0
KBY1 232333Z 07007KT 13/12 A2988 RMK A01 T01260115  RH  093%=      5-min Rain = 0
KBY1 232334Z 06007KT 13/12 A2988 RMK A01 T01260115  RH  093%=      5-min Rain = 0
KBY1 232335Z 06005KT 13/11 A2988 RMK A01 T01260114  RH  092%=      5-min Rain = 0
KBY1 232336Z 05004KT 13/12 A2988 RMK A01 T01260115  RH  093%=      5-min Rain = 0
KBY1 232337Z 06003KT 13/12 A2988 RMK A01 T01270117  RH  094%=      5-min Rain = 0
KBY1 232338Z 08005KT 13/12 A2988 RMK A01 T01290119  RH  094%=      5-min Rain = 0
KBY1 232339Z 07008KT 13/12 A2988 RMK A01 T01290118  RH  093%=      5-min Rain = 0
KBY1 232340Z 06006KT 13/11 A2987 RMK A01 T01280114  RH  091%=      5-min Rain = 0
KBY1 232341Z 08007KT 13/12 A2987 RMK A01 T01290116  RH  092%=      5-min Rain = 0
KBY1 232342Z 07007KT 13/12 A2987 RMK A01 T01290116  RH  092%=      5-min Rain = 0
KBY1 232343Z 07006KT 13/12 A2987 RMK A01 T01290115  RH  091%=      5-min Rain = 0
KBY1 232344Z 07005KT 13/12 A2987 RMK A01 T01290115  RH  091%=      5-min Rain = 0
KBY1 232345Z 07004KT 13/12 A2987 RMK A01 T01300115  RH  091%=      5-min Rain = 0
KBY1 232346Z 08004KT 13/12 A2987 RMK A01 T01300118  RH  092%=      5-min Rain = 0
KBY1 232347Z 07005KT 13/12 A2987 RMK A01 T01310118  RH  091%=      5-min Rain = 0
KBY1 232348Z 08004KT 13/12 A2988 RMK A01 T01310115  RH  090%=      5-min Rain = 0
KBY1 232349Z 07004KT 13/12 A2988 RMK A01 T01300115  RH  090%=      5-min Rain = 0
KBY1 232350Z 09006KT 13/12 A2988 RMK A01 T01310117  RH  091%=      5-min Rain = 0
KBY1 232351Z 06004KT 13/12 A2988 RMK A01 T01310115  RH  090%=      5-min Rain = 0
KBY1 232352Z 04004KT 13/12 A2988 RMK A01 T01310116  RH  091%=      5-min Rain = 0
KBY1 232353Z 04004KT 13/11 A2988 RMK A01 T01300114  RH  090%=      5-min Rain = 0
KBY1 232354Z 03004KT 13/11 A2988 RMK A01 T01290114  RH  090%=      5-min Rain = 0
KBY1 232355Z 02002KT 13/11 A2988 RMK A01 T01290112  RH  090%=      5-min Rain = 0
KBY1 232356Z 01002KT 13/11 A2987 RMK A01 T01280111  RH  090%=      5-min Rain = 0
KBY1 232357Z 02002KT 13/11 A2987 RMK A01 T01280114  RH  091%=      5-min Rain = 0
KBY1 232358Z 35002KT 13/12 A2988 RMK A01 T01290115  RH  091%=      5-min Rain = 0
KBY1 232359Z 35002KT 13/12 A2988 RMK A01 T01290115  RH  091%=      5-min Rain = 0
KBY1 240000Z 34002KT 13/11 A2988 RMK A01 T01290113  RH  090%=      5-min Rain = 0
KBY1 240001Z 36002KT 13/11 A2988 RMK A01 T01290113  RH  090%=      5-min Rain = 0
KBY1 240002Z 06002KT 13/11 A2988 RMK A01 T01300114  RH  090%=      5-min Rain = 0
KBY1 240003Z 06003KT 13/11 A2988 RMK A01 T01300113  RH  089%=      5-min Rain = 0
KBY1 240004Z 08003KT 13/11 A2988 RMK A01 T01300112  RH  089%=      5-min Rain = 0
KBY1 240005Z 08003KT 13/11 A2988 RMK A01 T01300113  RH  089%=      5-min Rain = 0
KBY1 240006Z 09002KT 13/12 A2988 RMK A01 T01300115  RH  091%=      5-min Rain = 0
KBY1 240007Z 12002KT 13/12 A2988 RMK A01 T01300117  RH  092%=      5-min Rain = 0
KBY1 240008Z 11003KT 13/12 A2988 RMK A01 T01310118  RH  092%=      5-min Rain = 0
KBY1 240009Z 10002KT 13/12 A2988 RMK A01 T01310118  RH  092%=      5-min Rain = 0
KBY1 240010Z 10001KT 13/12 A2988 RMK A01 T01310116  RH  091%=      5-min Rain = 0
KBY1 240011Z 09001KT 13/12 A2988 RMK A01 T01300115  RH  091%=      5-min Rain = 0
KBY1 240012Z 10000KT 13/12 A2988 RMK A01 T01310117  RH  091%=      5-min Rain = 0
KBY1 240013Z 18000KT 13/12 A2988 RMK A01 T01310117  RH  091%=      5-min Rain = 0
KBY1 240014Z 19001KT 13/12 A2987 RMK A01 T01320117  RH  091%=      5-min Rain = 0
KBY1 240015Z 23002KT 13/12 A2987 RMK A01 T01310117  RH  091%=      5-min Rain = 0
KBY1 240016Z 24002KT 13/12 A2987 RMK A01 T01310116  RH  090%=      5-min Rain = 0
KBY1 240017Z 22002KT 13/11 A2987 RMK A01 T01310114  RH  089%=      5-min Rain = 0
KBY1 240018Z 23001KT 13/12 A2987 RMK A01 T01300115  RH  091%=      5-min Rain = 0
KBY1 240019Z 22000KT 13/12 A2987 RMK A01 T01310117  RH  091%=      5-min Rain = 0
KBY1 240020Z 19000KT 13/12 A2987 RMK A01 T01310117  RH  091%=      5-min Rain = 0
KBY1 240021Z 12001KT 13/12 A2987 RMK A01 T01320118  RH  091%=      5-min Rain = 0
KBY1 240022Z 13002KT 13/12 A2987 RMK A01 T01320120  RH  092%=      5-min Rain = 0
KBY1 240023Z 13003KT 13/12 A2987 RMK A01 T01330120  RH  092%=      5-min Rain = 0
KBY1 240024Z 14004KT 13/12 A2988 RMK A01 T01330121  RH  092%=      5-min Rain = 0
KBY1 240025Z 13004KT 13/12 A2988 RMK A01 T01330120  RH  092%=      5-min Rain = 0
KBY1 240026Z 13003KT 13/12 A2988 RMK A01 T01330119  RH  091%=      5-min Rain = 0
KBY1 240027Z 14003KT 13/12 A2988 RMK A01 T01330119  RH  091%=      5-min Rain = 0
KBY1 240028Z 14002KT 13/12 A2988 RMK A01 T01320120  RH  092%=      5-min Rain = 0
KBY1 240029Z 14002KT 13/12 A2988 RMK A01 T01320119  RH  092%=      5-min Rain = 0
KBY1 240030Z 14002KT 13/12 A2988 RMK A01 T01320119  RH  092%=      5-min Rain = 0
KBY1 240031Z 15002KT 13/12 A2988 RMK A01 T01330119  RH  092%=      5-min Rain = 0
KBY1 240032Z 15003KT 13/12 A2988 RMK A01 T01320120  RH  092%=      5-min Rain = 0
KBY1 240033Z 15004KT 13/12 A2988 RMK A01 T01330122  RH  093%=      5-min Rain = 0
KBY1 240034Z 15003KT 13/12 A2987 RMK A01 T01330119  RH  091%=      5-min Rain = 0
KBY1 240035Z 14003KT 13/12 A2987 RMK A01 T01320118  RH  091%=      5-min Rain = 0
KBY1 240036Z 15004KT 13/12 A2987 RMK A01 T01320120  RH  092%=      5-min Rain = 0
KBY1 240037Z 15004KT 13/12 A2988 RMK A01 T01320120  RH  092%=      5-min Rain = 0
KBY1 240038Z 16004KT 13/12 A2988 RMK A01 T01320119  RH  092%=      5-min Rain = 0
KBY1 240039Z 15004KT 13/12 A2988 RMK A01 T01320117  RH  091%=      5-min Rain = 0
KBY1 240040Z 16002KT 13/12 A2987 RMK A01 T01320118  RH  092%=      5-min Rain = 0
KBY1 240041Z 17001KT 13/12 A2987 RMK A01 T01320120  RH  092%=      5-min Rain = 0
KBY1 240042Z 21002KT 13/12 A2987 RMK A01 T01320119  RH  092%=      5-min Rain = 0
KBY1 240043Z 21002KT 13/12 A2988 RMK A01 T01320119  RH  092%=      5-min Rain = 0
KBY1 240044Z 22003KT 13/12 A2988 RMK A01 T01320118  RH  091%=      5-min Rain = 0
KBY1 240045Z 23002KT 13/12 A2988 RMK A01 T01320117  RH  091%=      5-min Rain = 0
KBY1 240046Z 25003KT 13/12 A2988 RMK A01 T01320120  RH  093%=      5-min Rain = 0
KBY1 240047Z 24002KT 13/12 A2988 RMK A01 T01320123  RH  094%=      5-min Rain = 0
KBY1 240048Z 23002KT 13/12 A2988 RMK A01 T01330121  RH  092%=      5-min Rain = 0
KBY1 240049Z 21002KT 13/12 A2988 RMK A01 T01320118  RH  091%=      5-min Rain = 0
KBY1 240050Z 21002KT 13/12 A2988 RMK A01 T01320119  RH  092%=      5-min Rain = 0
KBY1 240051Z 23002KT 13/12 A2988 RMK A01 T01320119  RH  092%=      5-min Rain = 0
KBY1 240052Z 25002KT 13/12 A2987 RMK A01 T01320121  RH  093%=      5-min Rain = 0
KBY1 240053Z 24002KT 13/12 A2987 RMK A01 T01330122  RH  093%=      5-min Rain = 0
KBY1 240054Z 21002KT 13/12 A2987 RMK A01 T01330121  RH  093%=      5-min Rain = 0
KBY1 240055Z 19002KT 13/12 A2988 RMK A01 T01330119  RH  091%=      5-min Rain = 0
KBY1 240056Z 19002KT 13/12 A2988 RMK A01 T01330121  RH  092%=      5-min Rain = 0
KBY1 240057Z 18001KT 13/12 A2988 RMK A01 T01330120  RH  092%=      5-min Rain = 0
KBY1 240058Z 17001KT 13/12 A2988 RMK A01 T01330119  RH  091%=      5-min Rain = 0
KBY1 240059Z 16001KT 13/12 A2988 RMK A01 T01330120  RH  092%=      5-min Rain = 0
KBY1 240100Z 15002KT 13/12 A2988 RMK A01 T01330120  RH  092%=      5-min Rain = 0
KBY1 240101Z 14003KT 13/12 A2989 RMK A01 T01330121  RH  092%=      5-min Rain = 0
KBY1 240102Z 13003KT 13/12 A2989 RMK A01 T01330120  RH  092%=      5-min Rain = 0
KBY1 240103Z 12003KT 13/12 A2989 RMK A01 T01330119  RH  091%=      5-min Rain = 0
KBY1 240104Z 12002KT 13/12 A2988 RMK A01 T01330121  RH  092%=      5-min Rain = 0
KBY1 240105Z 14001KT 13/12 A2988 RMK A01 T01330121  RH  092%=      5-min Rain = 0
KBY1 240106Z 21000KT 13/12 A2988 RMK A01 T01330121  RH  093%=      5-min Rain = 0
KBY1 240107Z 23001KT 13/12 A2988 RMK A01 T01330122  RH  093%=      5-min Rain = 0
KBY1 240108Z 23001KT 13/12 A2988 RMK A01 T01330121  RH  092%=      5-min Rain = 0
KBY1 240109Z 23000KT 13/12 A2988 RMK A01 T01330121  RH  092%=      5-min Rain = 0
KBY1 240110Z 23000KT 13/12 A2988 RMK A01 T01330121  RH  092%=      5-min Rain = 0
KBY1 240111Z 22001KT 13/12 A2988 RMK A01 T01330121  RH  092%=      5-min Rain = 0
KBY1 240112Z 23001KT 13/12 A2988 RMK A01 T01330121  RH  092%=      5-min Rain = 0
KBY1 240113Z 20000KT 13/12 A2989 RMK A01 T01330120  RH  092%=      5-min Rain = 0
KBY1 240114Z 16000KT 13/12 A2989 RMK A01 T01330119  RH  091%=      5-min Rain = 0
KBY1 240115Z 12000KT 13/12 A299 RMK A01 T01330119  RH  091%=      5-min Rain = 0
KBY1 240116Z 11001KT 13/12 A299 RMK A01 T01330120  RH  091%=      5-min Rain = 0
KBY1 240117Z 11002KT 13/12 A299 RMK A01 T01330119  RH  091%=      5-min Rain = 0
KBY1 240118Z 12002KT 13/12 A299 RMK A01 T01330118  RH  091%=      5-min Rain = 0
KBY1 240119Z 11002KT 13/12 A299 RMK A01 T01320119  RH  092%=      5-min Rain = 0
KBY1 240120Z 12002KT 13/12 A299 RMK A01 T01330120  RH  092%=      5-min Rain = 0
KBY1 240121Z 12001KT 13/12 A299 RMK A01 T01330120  RH  092%=      5-min Rain = 0
KBY1 240122Z 14000KT 13/12 A299 RMK A01 T01330121  RH  092%=      5-min Rain = 0
KBY1 240123Z 00000KT 13/12 A299 RMK A01 T01330120  RH  092%=      5-min Rain = 0
KBY1 240124Z 12001KT 13/12 A299 RMK A01 T01330120  RH  092%=      5-min Rain = 0
KBY1 240125Z 11002KT 13/12 A299 RMK A01 T01330120  RH  092%=      5-min Rain = 0
KBY1 240126Z 11003KT 13/12 A299 RMK A01 T01340122  RH  092%=      5-min Rain = 0
KBY1 240127Z 11002KT 13/12 A2989 RMK A01 T01340121  RH  092%=      5-min Rain = 0
KBY1 240128Z 10003KT 13/12 A2989 RMK A01 T01330119  RH  091%=      5-min Rain = 0
KBY1 240129Z 10002KT 13/12 A2989 RMK A01 T01330119  RH  091%=      5-min Rain = 0
KBY1 240130Z 12001KT 13/12 A2989 RMK A01 T01330118  RH  091%=      5-min Rain = 0
KBY1 240131Z 13001KT 13/12 A2989 RMK A01 T01330120  RH  092%=      5-min Rain = 0
KBY1 240132Z 12001KT 13/12 A2989 RMK A01 T01330121  RH  092%=      5-min Rain = 0
KBY1 240133Z 11001KT 13/12 A2989 RMK A01 T01330121  RH  092%=      5-min Rain = 0
KBY1 240134Z 12002KT 13/12 A2989 RMK A01 T01330120  RH  092%=      5-min Rain = 0
KBY1 240135Z 11002KT 13/12 A2989 RMK A01 T01340121  RH  092%=      5-min Rain = 0
KBY1 240136Z 12002KT 13/12 A2989 RMK A01 T01340123  RH  093%=      5-min Rain = 0
KBY1 240137Z 12003KT 13/12 A299 RMK A01 T01340121  RH  092%=      5-min Rain = 0
KBY1 240138Z 11003KT 13/12 A299 RMK A01 T01330119  RH  091%=      5-min Rain = 0
KBY1 240139Z 12002KT 13/12 A299 RMK A01 T01330120  RH  092%=      5-min Rain = 0
KBY1 240140Z 15001KT 13/12 A299 RMK A01 T01330121  RH  092%=      5-min Rain = 0
KBY1 240141Z 18001KT 13/12 A299 RMK A01 T01330121  RH  092%=      5-min Rain = 0
KBY1 240142Z 19001KT 13/12 A299 RMK A01 T01330119  RH  091%=      5-min Rain = 0
KBY1 240143Z 20001KT 13/12 A2991 RMK A01 T01330117  RH  090%=      5-min Rain = 0
KBY1 240144Z 21001KT 13/12 A2991 RMK A01 T01330118  RH  091%=      5-min Rain = 0
KBY1 240145Z 20001KT 13/12 A2991 RMK A01 T01330119  RH  091%=      5-min Rain = 0
KBY1 240146Z 20000KT 13/12 A299 RMK A01 T01330119  RH  091%=      5-min Rain = 0
KBY1 240147Z 00000KT 13/12 A299 RMK A01 T01330119  RH  091%=      5-min Rain = 0
KBY1 240148Z 00000KT 13/12 A299 RMK A01 T01330119  RH  091%=      5-min Rain = 0
KBY1 240149Z 28001KT 13/12 A2991 RMK A01 T01330118  RH  091%=      5-min Rain = 0
KBY1 240150Z 28001KT 13/12 A2991 RMK A01 T01330118  RH  091%=      5-min Rain = 0
KBY1 240151Z 28002KT 13/12 A2991 RMK A01 T01330119  RH  091%=      5-min Rain = 0
KBY1 240152Z 26002KT 13/12 A2991 RMK A01 T01340121  RH  092%=      5-min Rain = 0
KBY1 240153Z 27002KT 13/12 A2991 RMK A01 T01340122  RH  092%=      5-min Rain = 0
KBY1 240154Z 31002KT 13/12 A2991 RMK A01 T01340121  RH  092%=      5-min Rain = 0
KBY1 240155Z 31002KT 13/12 A2991 RMK A01 T01340121  RH  092%=      5-min Rain = 0
KBY1 240156Z 31003KT 13/12 A2991 RMK A01 T01340123  RH  093%=      5-min Rain = 0
KBY1 240157Z 32003KT 14/12 A2991 RMK A01 T01350123  RH  092%=      5-min Rain = 0
KBY1 240158Z 30003KT 13/12 A2991 RMK A01 T01340121  RH  092%=      5-min Rain = 0
KBY1 240159Z 34003KT 13/12 A2991 RMK A01 T01340121  RH  092%=      5-min Rain = 0
KBY1 240200Z 34003KT 13/12 A2991 RMK A01 T01340122  RH  092%=      5-min Rain = 0
KBY1 240201Z 35002KT 13/12 A2991 RMK A01 T01340123  RH  093%=      5-min Rain = 0
KBY1 240202Z 33003KT 13/12 A2991 RMK A01 T01340121  RH  092%=      5-min Rain = 0
KBY1 240203Z 34003KT 13/12 A2991 RMK A01 T01340121  RH  092%=      5-min Rain = 0
KBY1 240204Z 34003KT 13/12 A2991 RMK A01 T01340120  RH  091%=      5-min Rain = 0
KBY1 240205Z 00003KT 13/12 A2991 RMK A01 T01330120  RH  091%=      5-min Rain = 0
KBY1 240206Z 35002KT 13/12 A2991 RMK A01 T01330119  RH  091%=      5-min Rain = 0
KBY1 240207Z 35002KT 13/12 A2991 RMK A01 T01330120  RH  092%=      5-min Rain = 0
KBY1 240208Z 35003KT 13/12 A2991 RMK A01 T01330121  RH  092%=      5-min Rain = 0
KBY1 240209Z 36003KT 13/12 A2991 RMK A01 T01330120  RH  092%=      5-min Rain = 0
KBY1 240210Z 02003KT 13/12 A2991 RMK A01 T01330121  RH  092%=      5-min Rain = 0
KBY1 240211Z 01003KT 13/12 A299 RMK A01 T01330121  RH  092%=      5-min Rain = 0
KBY1 240212Z 01003KT 13/12 A299 RMK A01 T01330122  RH  093%=      5-min Rain = 0
KBY1 240213Z 00003KT 13/12 A2991 RMK A01 T01330121  RH  092%=      5-min Rain = 0
KBY1 240214Z 35004KT 13/12 A2991 RMK A01 T01330121  RH  092%=      5-min Rain = 0
KBY1 240215Z 36004KT 13/12 A2991 RMK A01 T01330120  RH  092%=      5-min Rain = 0
KBY1 240216Z 35004KT 13/12 A2991 RMK A01 T01330120  RH  092%=      5-min Rain = 0
KBY1 240217Z 34005KT 13/12 A2991 RMK A01 T01330120  RH  092%=      5-min Rain = 0
KBY1 240218Z 34005KT 13/12 A2991 RMK A01 T01330121  RH  092%=      5-min Rain = 0
KBY1 240219Z 34006KT 13/12 A2991 RMK A01 T01330121  RH  092%=      5-min Rain = 0
KBY1 240220Z 36004KT 13/12 A2991 RMK A01 T01330121  RH  092%=      5-min Rain = 0
KBY1 240221Z 01003KT 13/12 A2991 RMK A01 T01330121  RH  092%=      5-min Rain = 0
KBY1 240222Z 34003KT 13/12 A2991 RMK A01 T01330122  RH  093%=      5-min Rain = 0
KBY1 240223Z 34004KT 13/12 A2992 RMK A01 T01330121  RH  092%=      5-min Rain = 0
KBY1 240224Z 34003KT 13/12 A2992 RMK A01 T01330120  RH  092%=      5-min Rain = 0
KBY1 240225Z 34003KT 13/12 A2991 RMK A01 T01320120  RH  092%=      5-min Rain = 0
KBY1 240226Z 34004KT 13/12 A2991 RMK A01 T01320121  RH  093%=      5-min Rain = 0
KBY1 240227Z 34004KT 13/12 A2992 RMK A01 T01330121  RH  093%=      5-min Rain = 0
KBY1 240228Z 33006KT 13/12 A2992 RMK A01 T01320121  RH  093%=      5-min Rain = 0
KBY1 240229Z 33006KT 13/12 A2992 RMK A01 T01320121  RH  093%=      5-min Rain = 0
KBY1 240230Z 32006KT 13/12 A2993 RMK A01 T01320121  RH  093%=      5-min Rain = 0
KBY1 240231Z 32006KT 13/12 A2993 RMK A01 T01320121  RH  093%=      5-min Rain = 0
KBY1 240232Z 32004KT 13/12 A2993 RMK A01 T01320121  RH  093%=      5-min Rain = 0
KBY1 240233Z 31005KT 13/12 A2993 RMK A01 T01320121  RH  093%=      5-min Rain = 0
KBY1 240234Z 31006KT 13/12 A2993 RMK A01 T01320120  RH  093%=      5-min Rain = 0
KBY1 240235Z 31006KT 13/12 A2993 RMK A01 T01320120  RH  092%=      5-min Rain = 0
KBY1 240236Z 32003KT 13/12 A2993 RMK A01 T01320119  RH  092%=      5-min Rain = 0
KBY1 240237Z 32001KT 13/12 A2993 RMK A01 T01330120  RH  092%=      5-min Rain = 0
KBY1 240238Z 34003KT 13/12 A2993 RMK A01 T01330121  RH  092%=      5-min Rain = 0
KBY1 240239Z 33002KT 13/12 A2994 RMK A01 T01330122  RH  093%=      5-min Rain = 0
KBY1 240240Z 33002KT 13/12 A2994 RMK A01 T01330121  RH  092%=      5-min Rain = 0
KBY1 240241Z 32004KT 13/12 A2994 RMK A01 T01330121  RH  092%=      5-min Rain = 0
KBY1 240242Z 32003KT 13/12 A2994 RMK A01 T01330121  RH  092%=      5-min Rain = 0
KBY1 240243Z 34003KT 13/12 A2994 RMK A01 T01330120  RH  092%=      5-min Rain = 0
KBY1 240244Z 36002KT 13/12 A2994 RMK A01 T01340121  RH  092%=      5-min Rain = 0
KBY1 240245Z 35002KT 13/12 A2994 RMK A01 T01340121  RH  092%=      5-min Rain = 0
KBY1 240246Z 02001KT 13/12 A2994 RMK A01 T01340121  RH  092%=      5-min Rain = 0
KBY1 240247Z 33001KT 13/12 A2994 RMK A01 T01340121  RH  092%=      5-min Rain = 0
KBY1 240248Z 29003KT 13/12 A2994 RMK A01 T01340120  RH  091%=      5-min Rain = 0
KBY1 240249Z 32003KT 13/12 A2994 RMK A01 T01340121  RH  092%=      5-min Rain = 0
KBY1 240250Z 33003KT 13/12 A2994 RMK A01 T01340120  RH  091%=      5-min Rain = 0
KBY1 240251Z 34002KT 13/12 A2993 RMK A01 T01340121  RH  092%=      5-min Rain = 0
KBY1 240252Z 34002KT 13/12 A2994 RMK A01 T01340122  RH  092%=      5-min Rain = 0
KBY1 240253Z 34004KT 13/12 A2994 RMK A01 T01340122  RH  092%=      5-min Rain = 0
KBY1 240254Z 32004KT 13/12 A2994 RMK A01 T01340121  RH  092%=      5-min Rain = 0
KBY1 240255Z 30004KT 13/12 A2995 RMK A01 T01340121  RH  091%=      5-min Rain = 0
KBY1 240256Z 29002KT 13/12 A2995 RMK A01 T01340119  RH  091%=      5-min Rain = 0
KBY1 240257Z 28001KT 13/12 A2995 RMK A01 T01340119  RH  091%=      5-min Rain = 0
KBY1 240258Z 33000KT 13/12 A2995 RMK A01 T01340118  RH  090%=      5-min Rain = 0
KBY1 240259Z 02001KT 13/12 A2995 RMK A01 T01340119  RH  091%=      5-min Rain = 0
KBY1 240300Z 35001KT 13/12 A2995 RMK A01 T01340118  RH  090%=      5-min Rain = 0
KBY1 240301Z 34003KT 13/12 A2995 RMK A01 T01340119  RH  090%=      5-min Rain = 0
KBY1 240302Z 33003KT 13/12 A2995 RMK A01 T01340119  RH  091%=      5-min Rain = 0
KBY1 240303Z 35003KT 13/12 A2995 RMK A01 T01340119  RH  090%=      5-min Rain = 0
KBY1 240304Z 34003KT 13/12 A2995 RMK A01 T01340118  RH  090%=      5-min Rain = 0
KBY1 240305Z 33004KT 13/12 A2995 RMK A01 T01340119  RH  090%=      5-min Rain = 0
KBY1 240306Z 33004KT 13/12 A2995 RMK A01 T01340118  RH  090%=      5-min Rain = 0
KBY1 240307Z 34003KT 13/12 A2995 RMK A01 T01340119  RH  091%=      5-min Rain = 0
KBY1 240308Z 35002KT 13/12 A2995 RMK A01 T01340119  RH  091%=      5-min Rain = 0
KBY1 240309Z 35003KT 13/12 A2995 RMK A01 T01330119  RH  091%=      5-min Rain = 0
KBY1 240310Z 00004KT 13/12 A2995 RMK A01 T01330117  RH  090%=      5-min Rain = 0
KBY1 240311Z 35004KT 13/12 A2995 RMK A01 T01330117  RH  090%=      5-min Rain = 0
KBY1 240312Z 33005KT 13/12 A2995 RMK A01 T01320117  RH  090%=      5-min Rain = 0
KBY1 240313Z 33005KT 13/12 A2995 RMK A01 T01320116  RH  090%=      5-min Rain = 0
KBY1 240314Z 33005KT 13/12 A2995 RMK A01 T01320117  RH  091%=      5-min Rain = 0
KBY1 240315Z 34004KT 13/12 A2995 RMK A01 T01320117  RH  091%=      5-min Rain = 0
KBY1 240316Z 33003KT 13/12 A2996 RMK A01 T01320117  RH  091%=      5-min Rain = 0
KBY1 240317Z 31002KT 13/12 A2996 RMK A01 T01310116  RH  091%=      5-min Rain = 0
KBY1 240318Z 33002KT 13/12 A2996 RMK A01 T01320117  RH  091%=      5-min Rain = 0
KBY1 240319Z 33002KT 13/12 A2996 RMK A01 T01310116  RH  091%=      5-min Rain = 0
KBY1 240320Z 36002KT 13/12 A2996 RMK A01 T01310116  RH  090%=      5-min Rain = 0
KBY1 240321Z 33002KT 13/12 A2996 RMK A01 T01310116  RH  091%=      5-min Rain = 0
KBY1 240322Z 33003KT 13/12 A2996 RMK A01 T01300116  RH  091%=      5-min Rain = 0
KBY1 240323Z 32003KT 13/12 A2996 RMK A01 T01300116  RH  091%=      5-min Rain = 0
KBY1 240324Z 32005KT 13/12 A2996 RMK A01 T01300116  RH  091%=      5-min Rain = 0
KBY1 240325Z 32004KT 13/12 A2996 RMK A01 T01290115  RH  091%=      5-min Rain = 0
KBY1 240326Z 33003KT 13/12 A2996 RMK A01 T01290115  RH  091%=      5-min Rain = 0
KBY1 240327Z 33002KT 13/12 A2995 RMK A01 T01290116  RH  092%=      5-min Rain = 0
KBY1 240328Z 33002KT 13/12 A2995 RMK A01 T01290116  RH  092%=      5-min Rain = 0
KBY1 240329Z 32004KT 13/12 A2995 RMK A01 T01290116  RH  092%=      5-min Rain = 0
KBY1 240330Z 33005KT 13/12 A2995 RMK A01 T01280117  RH  093%=      5-min Rain = 0
KBY1 240331Z 00003KT 13/12 A2995 RMK A01 T01280116  RH  093%=      5-min Rain = 0
KBY1 240332Z 01002KT 13/12 A2995 RMK A01 T01280116  RH  093%=      5-min Rain = 0
KBY1 240333Z 31003KT 13/12 A2996 RMK A01 T01280116  RH  093%=      5-min Rain = 0
KBY1 240334Z 32002KT 13/12 A2996 RMK A01 T01280117  RH  093%=      5-min Rain = 0
KBY1 240335Z 36002KT 13/12 A2995 RMK A01 T01280117  RH  093%=      5-min Rain = 0
KBY1 240336Z 04002KT 13/12 A2995 RMK A01 T01270116  RH  093%=      5-min Rain = 0
KBY1 240337Z 02002KT 13/12 A2996 RMK A01 T01270117  RH  093%=      5-min Rain = 0
KBY1 240338Z 00001KT 13/12 A2996 RMK A01 T01270117  RH  093%=      5-min Rain = 0
KBY1 240339Z 03001KT 13/12 A2996 RMK A01 T01270117  RH  094%=      5-min Rain = 0
KBY1 240340Z 04002KT 13/12 A2996 RMK A01 T01270117  RH  094%=      5-min Rain = 0
KBY1 240341Z 05002KT 13/12 A2996 RMK A01 T01270118  RH  094%=      5-min Rain = 0
KBY1 240342Z 06002KT 13/12 A2996 RMK A01 T01270118  RH  094%=      5-min Rain = 0
KBY1 240343Z 08002KT 13/12 A2996 RMK A01 T01270118  RH  094%=      5-min Rain = 0
KBY1 240344Z 06002KT 13/12 A2997 RMK A01 T01270117  RH  094%=      5-min Rain = 0
KBY1 240345Z 05001KT 13/12 A2997 RMK A01 T01270117  RH  094%=      5-min Rain = 0
KBY1 240346Z 33002KT 13/12 A2998 RMK A01 T01260118  RH  094%=      5-min Rain = 0
KBY1 240347Z 32004KT 13/12 A2998 RMK A01 T01260118  RH  095%=      5-min Rain = 0
KBY1 240348Z 35003KT 13/12 A2997 RMK A01 T01260118  RH  095%=      5-min Rain = 0
KBY1 240349Z 03002KT 13/12 A2996 RMK A01 T01260118  RH  094%=      5-min Rain = 0
KBY1 240350Z 35003KT 13/12 A2996 RMK A01 T01260117  RH  094%=      5-min Rain = 0
KBY1 240351Z 34003KT 13/12 A2997 RMK A01 T01260117  RH  094%=      5-min Rain = 0
KBY1 240352Z 34003KT 13/12 A2997 RMK A01 T01260117  RH  094%=      5-min Rain = 0
KBY1 240353Z 33003KT 13/12 A2997 RMK A01 T01260117  RH  094%=      5-min Rain = 0
KBY1 240354Z 34004KT 13/12 A2997 RMK A01 T01260117  RH  095%=      5-min Rain = 0
KBY1 240355Z 33003KT 13/12 A2997 RMK A01 T01260118  RH  095%=      5-min Rain = 0
KBY1 240356Z 33003KT 13/12 A2997 RMK A01 T01260118  RH  095%=      5-min Rain = 0
KBY1 240357Z 34003KT 13/12 A2997 RMK A01 T01260118  RH  095%=      5-min Rain = 0
KBY1 240358Z 34004KT 13/12 A2997 RMK A01 T01260118  RH  095%=      5-min Rain = 0
KBY1 240359Z 33003KT 13/12 A2997 RMK A01 T01260118  RH  095%=      5-min Rain = 0
KBY1 240400Z 32003KT 13/12 A2997 RMK A01 T01260118  RH  095%=      5-min Rain = 0
KBY1 240401Z 32003KT 13/12 A2997 RMK A01 T01260118  RH  095%=      5-min Rain = 0
KBY1 240402Z 31003KT 13/12 A2997 RMK A01 T01250118  RH  095%=      5-min Rain = 0
KBY1 240403Z 30003KT 13/12 A2998 RMK A01 T01250117  RH  095%=      5-min Rain = 0
KBY1 240404Z 31003KT 13/12 A2998 RMK A01 T01250117  RH  095%=      5-min Rain = 0
KBY1 240405Z 32002KT 13/12 A2998 RMK A01 T01250117  RH  095%=      5-min Rain = 0
KBY1 240406Z 32003KT 13/12 A2998 RMK A01 T01250117  RH  095%=      5-min Rain = 0
KBY1 240407Z 32003KT 12/12 A2998 RMK A01 T01240117  RH  095%=      5-min Rain = 0
KBY1 240408Z 33001KT 12/12 A2998 RMK A01 T01240116  RH  095%=      5-min Rain = 0
KBY1 240409Z 32001KT 12/12 A2999 RMK A01 T01240117  RH  095%=      5-min Rain = 0
KBY1 240410Z 32001KT 12/12 A2999 RMK A01 T01240117  RH  095%=      5-min Rain = 0
KBY1 240411Z 33001KT 12/12 A2998 RMK A01 T01240117  RH  095%=      5-min Rain = 0
KBY1 240412Z 34002KT 12/12 A2998 RMK A01 T01240117  RH  095%=      5-min Rain = 0
KBY1 240413Z 34002KT 12/12 A2998 RMK A01 T01240117  RH  096%=      5-min Rain = 0
KBY1 240414Z 33003KT 12/12 A2998 RMK A01 T01240117  RH  096%=      5-min Rain = 0
KBY1 240415Z 32002KT 12/12 A2998 RMK A01 T01240117  RH  096%=      5-min Rain = 0
KBY1 240416Z 33001KT 12/12 A2998 RMK A01 T01240117  RH  096%=      5-min Rain = 0
KBY1 240417Z 34002KT 12/12 A2998 RMK A01 T01240117  RH  096%=      5-min Rain = 0
KBY1 240418Z 33001KT 12/12 A2998 RMK A01 T01240117  RH  096%=      5-min Rain = 0
KBY1 240419Z 01001KT 12/12 A2998 RMK A01 T01230117  RH  096%=      5-min Rain = 0
KBY1 240420Z 02001KT 12/12 A2998 RMK A01 T01230117  RH  096%=      5-min Rain = 0
KBY1 240421Z 32000KT 12/12 A2998 RMK A01 T01230117  RH  096%=      5-min Rain = 0
KBY1 240422Z 32001KT 12/12 A2998 RMK A01 T01230117  RH  096%=      5-min Rain = 0
KBY1 240423Z 32001KT 12/12 A2998 RMK A01 T01230117  RH  096%=      5-min Rain = 0
KBY1 240424Z 32002KT 12/12 A2998 RMK A01 T01230118  RH  096%=      5-min Rain = 0
KBY1 240425Z 32002KT 12/12 A2998 RMK A01 T01230118  RH  097%=      5-min Rain = 0
KBY1 240426Z 30003KT 12/12 A2998 RMK A01 T01230118  RH  097%=      5-min Rain = 0
KBY1 240427Z 31003KT 12/12 A2998 RMK A01 T01220117  RH  097%=      5-min Rain = 0
KBY1 240428Z 31003KT 12/12 A2998 RMK A01 T01220117  RH  097%=      5-min Rain = 0
KBY1 240429Z 31003KT 12/12 A2998 RMK A01 T01220117  RH  097%=      5-min Rain = 0
KBY1 240430Z 31003KT 12/12 A2998 RMK A01 T01220117  RH  097%=      5-min Rain = 0
KBY1 240431Z 32003KT 12/12 A2998 RMK A01 T01220116  RH  097%=      5-min Rain = 0
KBY1 240432Z 33002KT 12/12 A2997 RMK A01 T01220116  RH  096%=      5-min Rain = 0
KBY1 240433Z 32001KT 12/12 A2997 RMK A01 T01220117  RH  096%=      5-min Rain = 0
KBY1 240434Z 32002KT 12/12 A2997 RMK A01 T01220116  RH  096%=      5-min Rain = 0
KBY1 240435Z 30001KT 12/12 A2998 RMK A01 T01210116  RH  096%=      5-min Rain = 0
KBY1 240436Z 30001KT 12/12 A2998 RMK A01 T01210116  RH  096%=      5-min Rain = 0
KBY1 240437Z 30003KT 12/12 A2998 RMK A01 T01210115  RH  096%=      5-min Rain = 0
KBY1 240438Z 30002KT 12/12 A2998 RMK A01 T01210115  RH  096%=      5-min Rain = 0
KBY1 240439Z 30002KT 12/12 A2998 RMK A01 T01210115  RH  096%=      5-min Rain = 0
KBY1 240440Z 30002KT 12/11 A2998 RMK A01 T01210114  RH  096%=      5-min Rain = 0
KBY1 240441Z 32002KT 12/11 A2998 RMK A01 T01210114  RH  096%=      5-min Rain = 0
KBY1 240442Z 31001KT 12/11 A2998 RMK A01 T01210114  RH  096%=      5-min Rain = 0
KBY1 240443Z 33001KT 12/11 A2998 RMK A01 T01210114  RH  096%=      5-min Rain = 0
KBY1 240444Z 33000KT 12/11 A2998 RMK A01 T01200114  RH  096%=      5-min Rain = 0
KBY1 240445Z 00000KT 12/11 A2998 RMK A01 T01200113  RH  095%=      5-min Rain = 0
KBY1 240446Z 00000KT 12/11 A2999 RMK A01 T01210114  RH  096%=      5-min Rain = 0
KBY1 240447Z 17000KT 12/11 A2999 RMK A01 T01200113  RH  096%=      5-min Rain = 0
KBY1 240448Z 17001KT 12/11 A2999 RMK A01 T01200113  RH  095%=      5-min Rain = 0
KBY1 240449Z 15001KT 12/11 A2998 RMK A01 T01200113  RH  095%=      5-min Rain = 0
KBY1 240450Z 13001KT 12/11 A2998 RMK A01 T01190112  RH  095%=      5-min Rain = 0
KBY1 240451Z 12002KT 12/11 A2998 RMK A01 T01190112  RH  096%=      5-min Rain = 0
KBY1 240452Z 11002KT 12/11 A2998 RMK A01 T01190113  RH  096%=      5-min Rain = 0
KBY1 240453Z 12001KT 12/11 A2998 RMK A01 T01180113  RH  096%=      5-min Rain = 0
KBY1 240454Z 07000KT 12/11 A2998 RMK A01 T01180113  RH  097%=      5-min Rain = 0
KBY1 240455Z 04000KT 12/11 A2998 RMK A01 T01180113  RH  097%=      5-min Rain = 0
KBY1 240456Z 00000KT 12/11 A2997 RMK A01 T01180113  RH  097%=      5-min Rain = 0
KBY1 240457Z 29000KT 12/11 A2997 RMK A01 T01180113  RH  097%=      5-min Rain = 0
KBY1 240458Z 29002KT 12/11 A2997 RMK A01 T01180113  RH  097%=      5-min Rain = 0
KBY1 240459Z 30003KT 12/11 A2997 RMK A01 T01180113  RH  097%=      5-min Rain = 0

Page generated in 0.1616 seconds.